M I D A S
Marine Information and Data Acquisition System
Tripno 1711 of the Zeeleeuw from 2009-06-17 08:24:53 to 2009-06-17 18:02:55
Back to CruiseResearch ActivitiesStationsMapUnderway DataData graphs

EquipmentUnitsComment
TimeDGPSUTC
LatitudeDGPSDM.mWGS84
LongitudeDGPSDM.mWGS84
TemperatureSBE03/SBE38deg celciusITS90
ConductivitySBE21S/mITS90
SalinitySBE21 Practical Salinity Units
ChlorophylAChelsea fluorimeterg/lCalibrated in Aceton
Missing or incorrect values are displayed as -999
Sea surface data collected by the RV Zeeleeuw from 2009-06-17 08:10:31 to 2009-06-17 18:11:20
                                                                                    Next 1000 lines
Time Latitude Longitude Temperature Conductivity Salinity ChlorophylA
2009-06-17 08:10:41 51°13.662 2°55.955 20.7213 0.259274 1.512072 2.864902
2009-06-17 08:10:46 51°13.663 2°55.951 20.7528 0.259274 1.512044 2.864902
2009-06-17 08:10:51 51°13.664 2°55.947 20.7411 0.259274 1.512044 2.864902
2009-06-17 08:10:57 51°13.666 2°55.941 20.7637 0.259274 1.512044 2.864902
2009-06-17 08:11:02 51°13.667 2°55.935 20.7531 0.259274 1.512044 2.864902
2009-06-17 08:11:08 51°13.669 2°55.929 20.7584 0.259274 1.512072 2.864902
2009-06-17 08:11:13 51°13.671 2°55.923 20.7549 0.259274 1.512044 2.864902
2009-06-17 08:11:19 51°13.673 2°55.916 20.7672 0.259274 1.512072 2.864902
2009-06-17 08:11:25 51°13.676 2°55.908 20.7583 0.259274 1.512072 2.864902
2009-06-17 08:11:29 51°13.677 2°55.902 20.7619 0.259274 1.512072 2.864902
2009-06-17 08:11:35 51°13.68 2°55.894 20.7536 0.259274 1.512044 2.864902
2009-06-17 08:11:40 51°13.682 2°55.887 20.7542 0.259274 1.512044 2.864902
2009-06-17 08:11:44 51°13.683 2°55.881 20.7534 0.259274 1.512017 2.864902
2009-06-17 08:11:49 51°13.685 2°55.873 20.7516 0.259274 1.512017 2.864902
2009-06-17 08:11:55 51°13.687 2°55.863 20.7521 0.259274 1.512017 2.864902
2009-06-17 08:12:00 51°13.688 2°55.856 20.7537 0.259274 1.512017 2.864902
2009-06-17 08:12:05 51°13.69 2°55.848 20.7538 0.259274 1.511989 2.864902
2009-06-17 08:12:09 51°13.69 2°55.842 20.7548 0.259274 1.511989 2.864902
2009-06-17 08:12:15 51°13.691 2°55.833 20.7548 0.259274 1.511961 2.864902
2009-06-17 08:12:20 51°13.692 2°55.825 20.755 0.259274 1.511961 2.864902
2009-06-17 08:12:25 51°13.693 2°55.818 20.7541 0.259274 1.511934 2.864902
2009-06-17 08:12:30 51°13.693 2°55.811 20.7548 0.259274 1.511934 2.864902
2009-06-17 08:12:35 51°13.694 2°55.804 20.7678 0.259274 1.511934 2.864902
2009-06-17 08:12:40 51°13.694 2°55.797 20.7644 0.259274 1.511934 2.864902
2009-06-17 08:12:45 51°13.694 2°55.791 20.7645 0.259274 1.511906 2.864902
2009-06-17 08:12:49 51°13.695 2°55.786 20.7642 0.259274 1.511906 2.864902
2009-06-17 08:12:55 51°13.695 2°55.779 20.7651 0.259274 1.511906 2.864902
2009-06-17 08:13:00 51°13.695 2°55.773 20.7641 0.259274 1.511906 2.864902
2009-06-17 08:13:04 51°13.695 2°55.769 20.7705 0.259274 1.511906 2.864902
2009-06-17 08:13:09 51°13.695 2°55.765 20.7751 0.259274 1.511906 2.864902
2009-06-17 08:13:14 51°13.695 2°55.762 20.7851 0.259274 1.511879 2.864902
2009-06-17 08:13:19 51°13.695 2°55.76 20.8013 0.259274 1.511879 2.864902
2009-06-17 08:13:24 51°13.695 2°55.758 20.8076 0.259274 1.511879 2.864902
2009-06-17 08:13:29 51°13.696 2°55.758 20.8144 0.259274 1.511879 2.864902
2009-06-17 08:13:33 51°13.697 2°55.758 20.8057 0.259274 1.511851 2.864902
2009-06-17 08:13:38 51°13.698 2°55.759 20.7997 0.259274 1.511851 2.864902
2009-06-17 08:13:43 51°13.699 2°55.76 20.8034 0.259274 1.511851 2.864902
2009-06-17 08:13:48 51°13.7 2°55.761 20.7834 0.259274 1.511851 2.864902
2009-06-17 08:13:53 51°13.702 2°55.762 20.7849 0.259274 1.511851 2.864902
2009-06-17 08:13:57 51°13.703 2°55.762 20.7654 0.259274 1.511851 2.864902
2009-06-17 08:14:02 51°13.704 2°55.763 20.7636 0.259274 1.511851 2.864902
2009-06-17 08:14:07 51°13.705 2°55.763 20.7595 0.259274 1.511823 2.864902
2009-06-17 08:14:12 51°13.706 2°55.763 20.7674 0.259274 1.511851 2.864902
2009-06-17 08:14:17 51°13.706 2°55.763 20.7651 0.259274 1.511851 2.864902
2009-06-17 08:14:22 51°13.706 2°55.762 20.7265 0.259274 1.511823 2.864902
2009-06-17 08:14:27 51°13.706 2°55.761 20.7434 0.259274 1.511823 2.864902
2009-06-17 08:14:32 51°13.706 2°55.76 20.7692 0.259274 1.511823 2.864902
2009-06-17 08:14:37 51°13.705 2°55.759 20.7833 0.259274 1.511796 2.864902
2009-06-17 08:14:41 51°13.704 2°55.758 20.7865 0.259274 1.511796 2.830078
2009-06-17 08:14:46 51°13.704 2°55.758 20.797 0.259274 1.511768 2.864902
2009-06-17 08:14:51 51°13.703 2°55.757 20.8266 0.259274 1.511741 2.864902
2009-06-17 08:14:56 51°13.704 2°55.756 20.8455 0.259274 1.511741 2.864902
2009-06-17 08:15:01 51°13.705 2°55.755 20.8571 0.259274 1.511741 2.864902
2009-06-17 08:15:06 51°13.708 2°55.755 20.8589 0.259274 1.511741 2.864902
2009-06-17 08:15:11 51°13.711 2°55.753 20.8662 0.259274 1.511741 2.830078
2009-06-17 08:15:16 51°13.714 2°55.751 20.8591 0.259274 1.511741 2.864902
2009-06-17 08:15:21 51°13.718 2°55.748 20.849 0.259274 1.511741 2.864902
2009-06-17 08:15:25 51°13.721 2°55.746 20.8522 0.259274 1.511741 2.864902
2009-06-17 08:15:31 51°13.726 2°55.74 20.8438 0.259274 1.511741 2.864902
2009-06-17 08:15:36 51°13.731 2°55.735 20.8138 0.259274 1.511713 2.864902
2009-06-17 08:15:41 51°13.737 2°55.729 20.8055 0.259274 1.511685 2.864902
2009-06-17 08:15:45 51°13.742 2°55.724 20.7962 0.259274 1.511685 2.864902
2009-06-17 08:15:51 51°13.75 2°55.715 20.7964 0.259377 1.512347 2.864902
2009-06-17 08:15:56 51°13.757 2°55.708 20.7837 0.259377 1.512347 2.864902
2009-06-17 08:16:01 51°13.764 2°55.7 20.7919 0.259274 1.511741 2.864902
2009-06-17 08:16:05 51°13.771 2°55.693 20.7888 0.259274 1.511768 2.864902
2009-06-17 08:16:11 51°13.781 2°55.683 20.7886 0.259274 1.511768 2.864902
2009-06-17 08:16:16 51°13.789 2°55.675 20.7784 0.259274 1.511741 2.864902
2009-06-17 08:16:21 51°13.798 2°55.667 20.7693 0.259377 1.512319 2.864902
2009-06-17 08:16:26 51°13.807 2°55.659 20.7769 0.259377 1.512319 2.864902
2009-06-17 08:16:31 51°13.817 2°55.651 20.7823 0.259377 1.512291 2.864902
2009-06-17 08:16:36 51°13.826 2°55.642 20.7982 0.259377 1.512291 2.864902
2009-06-17 08:16:41 51°13.836 2°55.635 20.8001 0.259377 1.512319 2.864902
2009-06-17 08:16:46 51°13.846 2°55.626 20.7977 0.259377 1.512347 2.864902
2009-06-17 08:16:51 51°13.856 2°55.618 20.7982 0.259377 1.512347 2.864902
2009-06-17 08:16:56 51°13.866 2°55.61 20.7979 0.259377 1.512374 2.864902
2009-06-17 08:17:01 51°13.876 2°55.602 20.7976 0.259377 1.512374 2.864902
2009-06-17 08:17:06 51°13.886 2°55.594 20.7939 0.259377 1.512374 2.864902
2009-06-17 08:17:11 51°13.897 2°55.586 20.7902 0.259377 1.512319 2.864902
2009-06-17 08:17:16 51°13.908 2°55.578 20.8033 0.259377 1.512291 2.864902
2009-06-17 08:17:21 51°13.918 2°55.571 20.7985 0.259377 1.512291 2.864902
2009-06-17 08:17:26 51°13.929 2°55.563 20.7976 0.259377 1.512291 2.864902
2009-06-17 08:17:31 51°13.939 2°55.554 20.7983 0.259377 1.512264 2.864902
2009-06-17 08:17:36 51°13.949 2°55.546 20.808 0.259377 1.512264 2.864902
2009-06-17 08:17:41 51°13.96 2°55.538 20.7969 0.259377 1.512291 2.864902
2009-06-17 08:17:46 51°13.97 2°55.53 20.8062 0.259377 1.512291 2.864902
2009-06-17 08:17:51 51°13.98 2°55.522 20.8083 0.259377 1.512291 2.864902
2009-06-17 08:17:56 51°13.991 2°55.514 20.8125 0.259377 1.512291 2.864902
2009-06-17 08:18:01 51°14.001 2°55.505 20.8068 0.259377 1.512291 2.864902
2009-06-17 08:18:05 51°14.01 2°55.498 20.8031 0.259377 1.512236 2.864902
2009-06-17 08:18:11 51°14.022 2°55.488 20.8115 0.259377 1.512264 2.864902
2009-06-17 08:18:16 51°14.033 2°55.48 20.8079 0.259377 1.512209 2.864902
2009-06-17 08:18:21 51°14.044 2°55.472 20.8163 0.259377 1.512209 2.864902
2009-06-17 08:18:25 51°14.053 2°55.465 20.8144 0.259377 1.512209 2.864902
2009-06-17 08:18:31 51°14.065 2°55.455 20.8183 0.259377 1.512236 2.864902
2009-06-17 08:18:36 51°14.076 2°55.447 20.804 0.259377 1.512236 2.864902
2009-06-17 08:18:41 51°14.087 2°55.438 20.8308 0.259377 1.512209 2.864902
2009-06-17 08:18:46 51°14.097 2°55.429 20.8192 0.259377 1.512209 2.864902
2009-06-17 08:18:51 51°14.108 2°55.421 20.8097 0.259377 1.512209 2.864902
2009-06-17 08:18:56 51°14.118 2°55.411 20.8123 0.259377 1.512209 2.864902
2009-06-17 08:19:01 51°14.129 2°55.403 20.8237 0.259377 1.512181 2.864902
2009-06-17 08:19:06 51°14.14 2°55.393 20.7888 0.259377 1.512181 2.864902
2009-06-17 08:19:11 51°14.15 2°55.384 20.8308 0.259377 1.512153 2.864902
2009-06-17 08:19:16 51°14.16 2°55.374 20.817 0.259377 1.512153 2.864902
2009-06-17 08:19:21 51°14.171 2°55.364 20.8182 0.259377 1.512153 2.864902
2009-06-17 08:19:26 51°14.181 2°55.353 20.8194 0.259377 1.512153 2.864902
2009-06-17 08:19:31 51°14.19 2°55.342 20.8124 0.259377 1.512126 2.864902
2009-06-17 08:19:36 51°14.2 2°55.331 20.8286 0.259377 1.512126 2.864902
2009-06-17 08:19:41 51°14.21 2°55.32 20.828 0.259377 1.512126 2.864902
2009-06-17 08:19:46 51°14.219 2°55.308 20.8054 0.259377 1.512126 2.864902
2009-06-17 08:19:51 51°14.229 2°55.295 20.8243 0.259377 1.512126 2.864902
2009-06-17 08:19:56 51°14.238 2°55.281 20.8188 0.259377 1.512126 2.864902
2009-06-17 08:20:01 51°14.247 2°55.268 20.8137 0.259377 1.512126 2.864902
2009-06-17 08:20:06 51°14.255 2°55.254 20.8157 0.259377 1.512071 2.864902
2009-06-17 08:20:11 51°14.264 2°55.24 20.796 0.259377 1.512071 2.864902
2009-06-17 08:20:16 51°14.273 2°55.225 20.8007 0.259377 1.512071 2.864902
2009-06-17 08:20:21 51°14.281 2°55.21 20.8223 0.259377 1.512071 2.864902
2009-06-17 08:20:26 51°14.29 2°55.195 20.7792 0.259377 1.512071 2.864902
2009-06-17 08:20:31 51°14.298 2°55.18 20.7825 0.259377 1.512043 2.864902
2009-06-17 08:20:36 51°14.307 2°55.164 20.75 0.259377 1.512043 2.864902
2009-06-17 08:20:41 51°14.315 2°55.149 20.818 0.259377 1.512015 2.864902
2009-06-17 08:20:45 51°14.322 2°55.136 20.819 0.259377 1.512043 2.864902
2009-06-17 08:20:51 51°14.333 2°55.117 20.7767 0.259377 1.512043 2.864902
2009-06-17 08:20:56 51°14.341 2°55.1 20.7751 0.259377 1.512043 2.864902
2009-06-17 08:21:01 51°14.349 2°55.083 20.7837 0.259377 1.512043 2.864902
2009-06-17 08:21:05 51°14.355 2°55.07 20.7885 0.259377 1.512015 2.864902
2009-06-17 08:21:11 51°14.365 2°55.049 20.7982 0.259377 1.512015 2.864902
2009-06-17 08:21:16 51°14.374 2°55.031 20.7767 0.259377 1.511988 2.864902
2009-06-17 08:21:21 51°14.382 2°55.013 20.813 0.259377 1.511988 2.864902
2009-06-17 08:21:26 51°14.39 2°54.996 20.7949 0.259377 1.511988 2.864902
2009-06-17 08:21:31 51°14.398 2°54.977 20.7889 0.259377 1.512015 2.830078
2009-06-17 08:21:36 51°14.406 2°54.959 20.7183 0.259377 1.512015 2.864902
2009-06-17 08:21:41 51°14.413 2°54.939 20.7509 0.259377 1.511988 2.864902
2009-06-17 08:21:46 51°14.421 2°54.921 20.7843 0.259377 1.51196 2.864902
2009-06-17 08:21:51 51°14.428 2°54.902 20.7827 0.259377 1.51196 2.864902
2009-06-17 08:21:56 51°14.436 2°54.883 20.7589 0.259377 1.51196 2.864902
2009-06-17 08:22:01 51°14.444 2°54.865 20.7985 0.259377 1.51196 2.864902
2009-06-17 08:22:06 51°14.453 2°54.846 20.7481 0.259377 1.51196 2.864902
2009-06-17 08:22:11 51°14.461 2°54.827 20.7793 0.259377 1.511988 2.864902
2009-06-17 08:22:16 51°14.469 2°54.808 20.7882 0.259377 1.51196 2.864902
2009-06-17 08:22:21 51°14.477 2°54.789 20.7947 0.259377 1.51196 2.864902
2009-06-17 08:22:26 51°14.485 2°54.771 20.7728 0.259377 1.51196 2.864902
2009-06-17 08:22:31 51°14.493 2°54.752 20.7677 0.259377 1.51196 2.864902
2009-06-17 08:22:36 51°14.502 2°54.733 20.7849 0.259377 1.51196 2.830078
2009-06-17 08:22:41 51°14.511 2°54.714 20.7651 0.259377 1.511933 2.864902
2009-06-17 08:22:46 51°14.519 2°54.694 20.7511 0.259377 1.511933 2.864902
2009-06-17 08:22:51 51°14.527 2°54.674 20.7678 0.259377 1.511933 2.864902
2009-06-17 08:22:56 51°14.535 2°54.654 20.7729 0.259377 1.511933 2.864902
2009-06-17 08:23:01 51°14.543 2°54.633 20.7613 0.259377 1.511933 2.864902
2009-06-17 08:23:06 51°14.551 2°54.612 20.7575 0.259377 1.511905 2.864902
2009-06-17 08:23:11 51°14.559 2°54.591 20.7209 0.259377 1.511905 2.864902
2009-06-17 08:23:16 51°14.568 2°54.57 20.7332 0.259377 1.511905 2.864902
2009-06-17 08:23:21 51°14.576 2°54.549 20.7448 0.259377 1.511905 2.864902
2009-06-17 08:23:26 51°14.584 2°54.527 20.7115 0.259377 1.511905 2.864902
2009-06-17 08:23:31 51°14.592 2°54.505 20.7327 0.259377 1.511905 2.864902
2009-06-17 08:23:36 51°14.601 2°54.484 20.7713 0.259377 1.511905 2.864902
2009-06-17 08:23:41 51°14.609 2°54.463 20.7606 0.259377 1.511905 2.864902
2009-06-17 08:23:46 51°14.618 2°54.441 20.7731 0.259377 1.511905 2.864902
2009-06-17 08:23:51 51°14.626 2°54.42 20.7612 0.259377 1.511905 2.864902
2009-06-17 08:23:56 51°14.635 2°54.398 20.7496 0.259377 1.511905 2.864902
2009-06-17 08:24:01 51°14.643 2°54.377 20.7415 0.259377 1.511877 2.864902
2009-06-17 08:24:06 51°14.651 2°54.355 20.7302 0.259377 1.511877 2.864902
2009-06-17 08:24:11 51°14.658 2°54.333 20.7502 0.259377 1.51185 2.864902
2009-06-17 08:24:16 51°14.666 2°54.311 20.7576 0.259377 1.51185 2.864902
2009-06-17 08:24:21 51°14.673 2°54.288 20.7342 0.259377 1.511877 2.864902
2009-06-17 08:24:26 51°14.68 2°54.266 20.7326 0.259377 1.511877 2.864902
2009-06-17 08:24:31 51°14.687 2°54.243 20.7424 0.259377 1.51185 2.864902
2009-06-17 08:24:36 51°14.693 2°54.22 20.7404 0.259377 1.51185 2.864902
2009-06-17 08:24:41 51°14.7 2°54.197 20.7589 0.259377 1.51185 2.864902
2009-06-17 08:24:46 51°14.706 2°54.174 20.7428 0.259377 1.511822 2.864902
2009-06-17 08:24:51 51°14.712 2°54.151 20.7555 0.259377 1.51185 2.864902
2009-06-17 08:24:56 51°14.718 2°54.127 20.7378 0.259377 1.51185 2.864902
2009-06-17 08:25:01 51°14.724 2°54.104 20.7663 0.259377 1.511822 2.864902
2009-06-17 08:25:06 51°14.73 2°54.08 20.7596 0.259377 1.511822 2.864902
2009-06-17 08:25:11 51°14.736 2°54.057 20.7321 0.259377 1.51185 2.830078
2009-06-17 08:25:16 51°14.742 2°54.034 20.738 0.259377 1.511822 2.830078
2009-06-17 08:25:21 51°14.747 2°54.011 20.7603 0.259377 1.511822 2.864902
2009-06-17 08:25:26 51°14.753 2°53.987 20.7203 0.259377 1.511822 2.864902
2009-06-17 08:25:31 51°14.76 2°53.964 20.7516 0.259377 1.511822 2.864902
2009-06-17 08:25:36 51°14.766 2°53.941 20.7518 0.259377 1.511822 2.864902
2009-06-17 08:25:41 51°14.772 2°53.917 20.7399 0.259377 1.511822 2.864902
2009-06-17 08:25:46 51°14.777 2°53.894 20.7391 0.259377 1.511822 2.864902
2009-06-17 08:25:51 51°14.783 2°53.871 20.7416 0.259377 1.511822 2.864902
2009-06-17 08:25:56 51°14.789 2°53.848 20.7352 0.259377 1.511822 2.864902
2009-06-17 08:26:01 51°14.795 2°53.824 20.7607 0.259377 1.511822 2.830078
2009-06-17 08:26:06 51°14.8 2°53.801 20.762 0.259377 1.511822 2.864902
2009-06-17 08:26:11 51°14.806 2°53.777 20.7619 0.259377 1.511795 2.864902
2009-06-17 08:26:16 51°14.812 2°53.754 20.7556 0.259377 1.511795 2.864902
2009-06-17 08:26:21 51°14.817 2°53.73 20.7521 0.259377 1.511795 2.864902
2009-06-17 08:26:26 51°14.823 2°53.707 20.7628 0.259377 1.511795 2.864902
2009-06-17 08:26:31 51°14.828 2°53.684 20.7618 0.259377 1.511795 2.830078
2009-06-17 08:26:36 51°14.834 2°53.66 20.7586 0.259377 1.511822 2.864902
2009-06-17 08:26:41 51°14.839 2°53.636 20.7597 0.259377 1.511795 2.864902
2009-06-17 08:26:46 51°14.844 2°53.613 20.7677 0.259377 1.511795 2.864902
2009-06-17 08:26:51 51°14.849 2°53.589 20.7703 0.259377 1.511767 2.830078
2009-06-17 08:26:56 51°14.855 2°53.565 20.7437 0.259377 1.511767 2.830078
2009-06-17 08:27:01 51°14.861 2°53.541 20.7265 0.259377 1.511795 2.864902
2009-06-17 08:27:05 51°14.865 2°53.522 20.7599 0.259377 1.511767 2.830078
2009-06-17 08:27:11 51°14.872 2°53.494 20.7585 0.259377 1.511795 2.864902
2009-06-17 08:27:16 51°14.878 2°53.47 20.75 0.259377 1.511767 2.864902
2009-06-17 08:27:21 51°14.884 2°53.447 20.747 0.259377 1.511795 2.830078
2009-06-17 08:27:26 51°14.89 2°53.423 20.7382 0.259377 1.511795 2.830078
2009-06-17 08:27:31 51°14.895 2°53.399 20.7339 0.259377 1.511795 2.830078
2009-06-17 08:27:36 51°14.901 2°53.375 20.7328 0.259377 1.511767 2.864902
2009-06-17 08:27:41 51°14.907 2°53.352 20.7575 0.259377 1.511795 2.864902
2009-06-17 08:27:46 51°14.913 2°53.328 20.7515 0.259377 1.511767 2.864902
2009-06-17 08:27:51 51°14.919 2°53.304 20.751 0.259377 1.511767 2.864902
2009-06-17 08:27:56 51°14.925 2°53.281 20.7446 0.259377 1.511767 2.864902
2009-06-17 08:28:01 51°14.931 2°53.257 20.749 0.259377 1.511767 2.864902
2009-06-17 08:28:06 51°14.937 2°53.233 20.7577 0.259377 1.511767 2.864902
2009-06-17 08:28:11 51°14.943 2°53.21 20.7319 0.259377 1.511767 2.864902
2009-06-17 08:28:16 51°14.949 2°53.186 20.7198 0.259377 1.511739 2.830078
2009-06-17 08:28:21 51°14.955 2°53.162 20.6938 0.259377 1.511767 2.864902
2009-06-17 08:28:26 51°14.96 2°53.138 20.7364 0.259377 1.511767 2.864902
2009-06-17 08:28:31 51°14.966 2°53.115 20.7486 0.259377 1.511767 2.830078
2009-06-17 08:28:36 51°14.972 2°53.091 20.7471 0.259377 1.511739 2.864902
2009-06-17 08:28:41 51°14.978 2°53.067 20.7357 0.259377 1.511739 2.830078
2009-06-17 08:28:46 51°14.984 2°53.044 20.7517 0.259377 1.511712 2.864902
2009-06-17 08:28:51 51°14.99 2°53.02 20.7292 0.259377 1.511739 2.864902
2009-06-17 08:28:56 51°14.995 2°52.997 20.7174 0.259377 1.511739 2.864902
2009-06-17 08:29:01 51°15 2°52.973 20.7518 0.259377 1.511739 2.864902
2009-06-17 08:29:06 51°15.005 2°52.949 20.7536 0.259377 1.511739 2.864902
2009-06-17 08:29:11 51°15.01 2°52.925 20.759 0.259377 1.511739 2.864902
2009-06-17 08:29:16 51°15.015 2°52.901 20.7607 0.259377 1.511739 2.864902
2009-06-17 08:29:21 51°15.019 2°52.877 20.7618 0.259377 1.511739 2.864902
2009-06-17 08:29:26 51°15.024 2°52.853 20.7582 0.259377 1.511739 2.864902
2009-06-17 08:29:31 51°15.029 2°52.828 20.7442 0.259377 1.511739 2.864902
2009-06-17 08:29:36 51°15.033 2°52.804 20.7469 0.259377 1.511739 2.864902
2009-06-17 08:29:41 51°15.037 2°52.78 20.7589 0.259377 1.511739 2.864902
2009-06-17 08:29:46 51°15.041 2°52.756 20.7552 0.259377 1.511739 2.864902
2009-06-17 08:29:51 51°15.045 2°52.732 20.7504 0.259377 1.511712 2.864902
2009-06-17 08:29:56 51°15.049 2°52.708 20.7591 0.259377 1.511712 2.864902
2009-06-17 08:30:01 51°15.054 2°52.683 20.7618 0.259377 1.511739 2.864902
2009-06-17 08:30:05 51°15.057 2°52.664 20.7588 0.259377 1.511739 2.864902
2009-06-17 08:30:11 51°15.062 2°52.635 20.7737 0.259377 1.511712 2.864902
2009-06-17 08:30:16 51°15.065 2°52.611 20.7638 0.259377 1.511767 2.864902
2009-06-17 08:30:21 51°15.067 2°52.586 20.7625 0.259377 1.511739 2.864902
2009-06-17 08:30:26 51°15.07 2°52.562 20.7628 0.259377 1.511739 2.864902
2009-06-17 08:30:31 51°15.071 2°52.537 20.7456 0.259377 1.511739 2.864902
2009-06-17 08:30:36 51°15.072 2°52.513 20.7833 0.259377 1.511712 2.864902
2009-06-17 08:30:41 51°15.073 2°52.488 20.7619 0.259377 1.511712 2.864902
2009-06-17 08:30:46 51°15.074 2°52.464 20.7308 0.259377 1.511712 2.830078
2009-06-17 08:30:51 51°15.073 2°52.439 20.7852 0.259377 1.511712 2.864902
2009-06-17 08:30:56 51°15.073 2°52.414 20.7707 0.259377 1.511712 2.864902
2009-06-17 08:31:01 51°15.073 2°52.389 20.7229 0.259377 1.511712 2.830078
2009-06-17 08:31:06 51°15.072 2°52.365 20.7143 0.259377 1.511739 2.864902
2009-06-17 08:31:11 51°15.07 2°52.34 20.759 0.259377 1.511712 2.899726
2009-06-17 08:31:16 51°15.069 2°52.316 20.7096 0.259377 1.511739 2.864902
2009-06-17 08:31:21 51°15.068 2°52.291 20.7622 0.259377 1.511739 2.864902
2009-06-17 08:31:26 51°15.066 2°52.267 20.7341 0.259377 1.511739 2.864902
2009-06-17 08:31:31 51°15.065 2°52.242 20.7613 0.259377 1.511712 2.864902
2009-06-17 08:31:36 51°15.063 2°52.218 20.7208 0.259377 1.511712 2.864902
2009-06-17 08:31:41 51°15.061 2°52.194 20.7634 0.259377 1.511684 2.864902
2009-06-17 08:31:46 51°15.06 2°52.169 20.7245 0.259377 1.511684 2.864902
2009-06-17 08:31:51 51°15.058 2°52.145 20.7517 0.259377 1.511739 2.864902
2009-06-17 08:31:56 51°15.056 2°52.121 20.7524 0.259377 1.511739 2.864902
2009-06-17 08:32:01 51°15.055 2°52.096 20.7438 0.259377 1.511712 2.864902
2009-06-17 08:32:06 51°15.052 2°52.072 20.7726 0.259377 1.511712 2.864902
2009-06-17 08:32:11 51°15.051 2°52.047 20.7311 0.259377 1.511712 2.864902
2009-06-17 08:32:16 51°15.05 2°52.023 20.7301 0.259377 1.511739 2.864902
2009-06-17 08:32:21 51°15.048 2°51.999 20.7766 0.259377 1.511712 2.864902
2009-06-17 08:32:26 51°15.046 2°51.974 20.72 0.259377 1.511712 2.864902
2009-06-17 08:32:31 51°15.044 2°51.95 20.7759 0.259377 1.511712 2.864902
2009-06-17 08:32:36 51°15.042 2°51.926 20.7698 0.259377 1.511739 2.864902
2009-06-17 08:32:41 51°15.04 2°51.902 20.7707 0.259377 1.511712 2.864902
2009-06-17 08:32:46 51°15.039 2°51.878 20.7711 0.259377 1.511712 2.864902
2009-06-17 08:32:51 51°15.037 2°51.853 20.7523 0.259377 1.511712 2.864902
2009-06-17 08:32:56 51°15.035 2°51.829 20.7707 0.259377 1.511712 2.864902
2009-06-17 08:33:01 51°15.034 2°51.804 20.7773 0.259377 1.511712 2.864902
2009-06-17 08:33:06 51°15.033 2°51.78 20.7673 0.259377 1.511739 2.864902
2009-06-17 08:33:11 51°15.031 2°51.755 20.7727 0.259377 1.511712 2.864902
2009-06-17 08:33:16 51°15.03 2°51.731 20.7447 0.259377 1.511767 2.864902
2009-06-17 08:33:21 51°15.028 2°51.706 20.7759 0.259377 1.511739 2.864902
2009-06-17 08:33:26 51°15.027 2°51.682 20.7554 0.259377 1.511739 2.864902
2009-06-17 08:33:31 51°15.026 2°51.657 20.7803 0.259377 1.511712 2.864902
2009-06-17 08:33:36 51°15.025 2°51.633 20.7679 0.259377 1.511712 2.864902
2009-06-17 08:33:41 51°15.024 2°51.608 20.7773 0.259377 1.511712 2.864902
2009-06-17 08:33:46 51°15.024 2°51.584 20.7773 0.259377 1.511712 2.830078
2009-06-17 08:33:51 51°15.023 2°51.559 20.7679 0.259377 1.511712 2.864902
2009-06-17 08:33:56 51°15.023 2°51.534 20.7587 0.259377 1.511712 2.864902
2009-06-17 08:34:01 51°15.023 2°51.51 20.7433 0.259377 1.511712 2.864902
2009-06-17 08:34:06 51°15.023 2°51.485 20.778 0.259377 1.511712 2.864902
2009-06-17 08:34:11 51°15.024 2°51.461 20.7549 0.259377 1.511739 2.864902
2009-06-17 08:34:16 51°15.024 2°51.436 20.7759 0.259377 1.511739 2.864902
2009-06-17 08:34:21 51°15.025 2°51.411 20.7551 0.259377 1.511712 2.864902
2009-06-17 08:34:26 51°15.027 2°51.387 20.7744 0.259377 1.511712 2.864902
2009-06-17 08:34:31 51°15.029 2°51.363 20.7472 0.259377 1.511712 2.830078
2009-06-17 08:34:36 51°15.032 2°51.338 20.7821 0.259377 1.511712 2.864902
2009-06-17 08:34:41 51°15.035 2°51.314 20.7573 0.259377 1.511739 2.864902
2009-06-17 08:34:46 51°15.038 2°51.29 20.7668 0.259377 1.511712 2.864902
2009-06-17 08:34:51 51°15.042 2°51.265 20.7602 0.259377 1.511712 2.864902
2009-06-17 08:34:56 51°15.046 2°51.241 20.7772 0.259377 1.511712 2.864902
2009-06-17 08:35:01 51°15.05 2°51.217 20.7789 0.259377 1.511739 2.864902
2009-06-17 08:35:06 51°15.054 2°51.193 20.7869 0.259377 1.511739 2.830078
2009-06-17 08:35:11 51°15.059 2°51.169 20.7815 0.259377 1.511712 2.864902
2009-06-17 08:35:16 51°15.063 2°51.146 20.7557 0.259377 1.511712 2.830078
2009-06-17 08:35:21 51°15.068 2°51.122 20.7479 0.259377 1.511712 2.864902
2009-06-17 08:35:26 51°15.072 2°51.097 20.7784 0.259377 1.511712 2.864902
2009-06-17 08:35:31 51°15.077 2°51.073 20.7917 0.259377 1.511712 2.830078
2009-06-17 08:35:36 51°15.082 2°51.049 20.7871 0.259377 1.511712 2.864902
2009-06-17 08:35:41 51°15.087 2°51.026 20.7945 0.259377 1.511712 2.864902
2009-06-17 08:35:46 51°15.092 2°51.002 20.7957 0.259377 1.511739 2.864902
2009-06-17 08:35:51 51°15.097 2°50.978 20.7587 0.259377 1.511739 2.864902
2009-06-17 08:35:56 51°15.102 2°50.954 20.7755 0.259377 1.511739 2.864902
2009-06-17 08:36:01 51°15.107 2°50.93 20.7692 0.259377 1.511712 2.830078
2009-06-17 08:36:06 51°15.111 2°50.906 20.7769 0.259377 1.511712 2.830078
2009-06-17 08:36:11 51°15.116 2°50.882 20.768 0.259377 1.511712 2.830078
2009-06-17 08:36:16 51°15.121 2°50.858 20.7828 0.259377 1.511712 2.830078
2009-06-17 08:36:21 51°15.125 2°50.834 20.8107 0.259377 1.511684 2.830078
2009-06-17 08:36:26 51°15.13 2°50.81 20.8122 0.259377 1.511684 2.830078
2009-06-17 08:36:31 51°15.135 2°50.786 20.7857 0.259377 1.511712 2.830078
2009-06-17 08:36:36 51°15.139 2°50.761 20.7879 0.259377 1.511712 2.830078
2009-06-17 08:36:41 51°15.143 2°50.737 20.7926 0.259377 1.511712 2.864902
2009-06-17 08:36:46 51°15.148 2°50.712 20.8017 0.259377 1.511684 2.864902
2009-06-17 08:36:51 51°15.153 2°50.688 20.7862 0.259377 1.511739 2.830078
2009-06-17 08:36:56 51°15.157 2°50.664 20.7884 0.259377 1.511739 2.830078
2009-06-17 08:37:01 51°15.161 2°50.639 20.8104 0.259377 1.511712 2.830078
2009-06-17 08:37:06 51°15.166 2°50.615 20.7802 0.259377 1.511712 2.830078
2009-06-17 08:37:11 51°15.17 2°50.591 20.8016 0.259377 1.511712 2.830078
2009-06-17 08:37:16 51°15.174 2°50.566 20.7848 0.259377 1.511712 2.864902
2009-06-17 08:37:21 51°15.179 2°50.542 20.7959 0.259377 1.511684 2.864902
2009-06-17 08:37:26 51°15.183 2°50.518 20.786 0.259377 1.511684 2.864902
2009-06-17 08:37:31 51°15.188 2°50.493 20.7815 0.259377 1.511712 2.830078
2009-06-17 08:37:36 51°15.192 2°50.469 20.8081 0.259377 1.511712 2.830078
2009-06-17 08:37:41 51°15.197 2°50.445 20.817 0.259377 1.511739 2.830078
2009-06-17 08:37:46 51°15.201 2°50.421 20.8065 0.259377 1.511739 2.864902
2009-06-17 08:37:51 51°15.205 2°50.396 20.7764 0.259377 1.511712 2.830078
2009-06-17 08:37:56 51°15.21 2°50.372 20.8094 0.259377 1.511712 2.830078
2009-06-17 08:38:01 51°15.214 2°50.348 20.8055 0.259377 1.511712 2.830078
2009-06-17 08:38:06 51°15.218 2°50.323 20.8186 0.259377 1.511712 2.830078
2009-06-17 08:38:11 51°15.222 2°50.299 20.8018 0.259377 1.511684 2.864902
2009-06-17 08:38:16 51°15.226 2°50.274 20.8134 0.259377 1.511684 2.830078
2009-06-17 08:38:21 51°15.231 2°50.25 20.8079 0.259377 1.511684 2.830078
2009-06-17 08:38:26 51°15.235 2°50.226 20.7853 0.259377 1.511684 2.830078
2009-06-17 08:38:31 51°15.239 2°50.201 20.8084 0.259377 1.511712 2.830078
2009-06-17 08:38:36 51°15.243 2°50.177 20.8077 0.259377 1.511712 2.830078
2009-06-17 08:38:41 51°15.247 2°50.153 20.8133 0.259377 1.511712 2.830078
2009-06-17 08:38:46 51°15.251 2°50.128 20.8099 0.259377 1.511712 2.830078
2009-06-17 08:38:51 51°15.255 2°50.104 20.8087 0.259377 1.511712 2.830078
2009-06-17 08:38:56 51°15.259 2°50.079 20.8051 0.259377 1.511712 2.830078
2009-06-17 08:39:01 51°15.263 2°50.055 20.8231 0.259377 1.511712 2.830078
2009-06-17 08:39:06 51°15.267 2°50.031 20.8083 0.259377 1.511712 2.830078
2009-06-17 08:39:11 51°15.271 2°50.006 20.7987 0.259377 1.511684 2.830078
2009-06-17 08:39:16 51°15.275 2°49.982 20.8185 0.259377 1.511712 2.864902
2009-06-17 08:39:21 51°15.28 2°49.958 20.812 0.259377 1.511712 2.864902
2009-06-17 08:39:26 51°15.284 2°49.933 20.8152 0.259377 1.511712 2.864902
2009-06-17 08:39:31 51°15.289 2°49.909 20.8194 0.259377 1.511712 2.830078
2009-06-17 08:39:36 51°15.293 2°49.885 20.8117 0.259377 1.511712 2.830078
2009-06-17 08:39:41 51°15.298 2°49.861 20.8174 0.259377 1.511712 2.830078
2009-06-17 08:39:46 51°15.303 2°49.837 20.7855 0.259377 1.511712 2.830078
2009-06-17 08:39:51 51°15.308 2°49.813 20.8231 0.259377 1.511712 2.830078
2009-06-17 08:39:56 51°15.312 2°49.788 20.8166 0.259377 1.511712 2.830078
2009-06-17 08:40:01 51°15.317 2°49.764 20.7928 0.259377 1.511684 2.830078
2009-06-17 08:40:06 51°15.321 2°49.74 20.8189 0.259377 1.511684 2.830078
2009-06-17 08:40:11 51°15.327 2°49.716 20.8198 0.259377 1.511712 2.830078
2009-06-17 08:40:16 51°15.331 2°49.692 20.803 0.259377 1.511712 2.830078
2009-06-17 08:40:21 51°15.336 2°49.668 20.8041 0.259377 1.511712 2.830078
2009-06-17 08:40:26 51°15.34 2°49.644 20.8139 0.259377 1.511712 2.830078
2009-06-17 08:40:31 51°15.345 2°49.62 20.8236 0.259377 1.511712 2.830078
2009-06-17 08:40:36 51°15.35 2°49.595 20.8318 0.259377 1.511712 2.830078
2009-06-17 08:40:41 51°15.354 2°49.571 20.8323 0.259377 1.511712 2.830078
2009-06-17 08:40:46 51°15.359 2°49.547 20.8277 0.259377 1.511739 2.830078
2009-06-17 08:40:51 51°15.363 2°49.523 20.8212 0.259377 1.511712 2.830078
2009-06-17 08:40:56 51°15.367 2°49.499 20.8385 0.259377 1.511712 2.830078
2009-06-17 08:41:01 51°15.372 2°49.475 20.8202 0.259377 1.511712 2.830078
2009-06-17 08:41:05 51°15.375 2°49.455 20.8272 0.259377 1.511684 2.830078
2009-06-17 08:41:11 51°15.381 2°49.426 20.8372 0.259377 1.511712 2.830078
2009-06-17 08:41:16 51°15.385 2°49.402 20.8278 0.259377 1.511712 2.830078
2009-06-17 08:41:21 51°15.39 2°49.378 20.7866 0.259377 1.511739 2.830078
2009-06-17 08:41:26 51°15.394 2°49.354 20.8247 0.259377 1.511739 2.830078
2009-06-17 08:41:31 51°15.398 2°49.33 20.8291 0.259377 1.511739 2.830078
2009-06-17 08:41:36 51°15.402 2°49.306 20.8409 0.259377 1.511739 2.830078
2009-06-17 08:41:41 51°15.407 2°49.281 20.8275 0.259377 1.511739 2.830078
2009-06-17 08:41:46 51°15.411 2°49.257 20.8413 0.259377 1.511712 2.830078
2009-06-17 08:41:51 51°15.415 2°49.233 20.8016 0.259377 1.511739 2.830078
2009-06-17 08:41:56 51°15.419 2°49.209 20.8432 0.259377 1.511739 2.830078
2009-06-17 08:42:01 51°15.423 2°49.184 20.8432 0.259377 1.511712 2.830078
2009-06-17 08:42:06 51°15.426 2°49.16 20.8533 0.259377 1.511739 2.830078
2009-06-17 08:42:11 51°15.43 2°49.136 20.8049 0.259377 1.511739 2.830078
2009-06-17 08:42:16 51°15.434 2°49.111 20.8413 0.259377 1.511739 2.830078
2009-06-17 08:42:21 51°15.438 2°49.087 20.8437 0.259377 1.511712 2.830078
2009-06-17 08:42:26 51°15.442 2°49.063 20.8432 0.259377 1.511712 2.830078
2009-06-17 08:42:31 51°15.447 2°49.039 20.8195 0.259377 1.511739 2.830078
2009-06-17 08:42:36 51°15.451 2°49.015 20.8351 0.259377 1.511739 2.864902
2009-06-17 08:42:41 51°15.455 2°48.99 20.8441 0.259377 1.511739 2.830078
2009-06-17 08:42:46 51°15.459 2°48.966 20.8215 0.259377 1.511739 2.830078
2009-06-17 08:42:51 51°15.463 2°48.942 20.8368 0.259377 1.511739 2.830078
2009-06-17 08:42:56 51°15.467 2°48.918 20.8363 0.259377 1.511739 2.830078
2009-06-17 08:43:01 51°15.471 2°48.894 20.8423 0.259377 1.511767 2.830078
2009-06-17 08:43:06 51°15.474 2°48.87 20.8347 0.259377 1.511739 2.830078
2009-06-17 08:43:11 51°15.478 2°48.845 20.8344 0.259377 1.511739 2.830078
2009-06-17 08:43:16 51°15.481 2°48.821 20.8539 0.259377 1.511712 2.830078
2009-06-17 08:43:21 51°15.485 2°48.797 20.8224 0.259377 1.511739 2.830078
2009-06-17 08:43:26 51°15.488 2°48.772 20.8482 0.259377 1.511739 2.830078
2009-06-17 08:43:31 51°15.492 2°48.748 20.859 0.259377 1.511712 2.830078
2009-06-17 08:43:36 51°15.496 2°48.724 20.8004 0.259377 1.511767 2.830078
2009-06-17 08:43:41 51°15.499 2°48.699 20.829 0.259377 1.511739 2.830078
2009-06-17 08:43:46 51°15.503 2°48.675 20.8459 0.259377 1.511739 2.830078
2009-06-17 08:43:51 51°15.507 2°48.651 20.8443 0.259377 1.511739 2.830078
2009-06-17 08:43:56 51°15.511 2°48.627 20.8441 0.259377 1.511739 2.830078
2009-06-17 08:44:01 51°15.515 2°48.603 20.8453 0.259377 1.511739 2.830078
2009-06-17 08:44:06 51°15.519 2°48.578 20.8322 0.259377 1.511712 2.830078
2009-06-17 08:44:11 51°15.523 2°48.554 20.8539 0.259377 1.511712 2.830078
2009-06-17 08:44:16 51°15.527 2°48.53 20.8463 0.259377 1.511712 2.830078
2009-06-17 08:44:21 51°15.531 2°48.505 20.8379 0.259377 1.511739 2.830078
2009-06-17 08:44:26 51°15.535 2°48.481 20.8479 0.259377 1.511739 2.830078
2009-06-17 08:44:31 51°15.539 2°48.456 20.8165 0.259377 1.511739 2.830078
2009-06-17 08:44:36 51°15.543 2°48.432 20.8164 0.259377 1.511739 2.830078
2009-06-17 08:44:41 51°15.547 2°48.408 20.8559 0.259377 1.511712 2.830078
2009-06-17 08:44:46 51°15.553 2°48.385 20.8059 0.259377 1.511712 2.830078
2009-06-17 08:44:51 51°15.558 2°48.361 20.8464 0.259377 1.511712 2.830078
2009-06-17 08:44:56 51°15.564 2°48.338 20.8186 0.259377 1.511712 2.830078
2009-06-17 08:45:01 51°15.57 2°48.315 20.8437 0.259377 1.511712 2.830078
2009-06-17 08:45:06 51°15.577 2°48.292 20.8494 0.259377 1.511739 2.830078
2009-06-17 08:45:11 51°15.583 2°48.269 20.8449 0.259377 1.511712 2.830078
2009-06-17 08:45:16 51°15.59 2°48.246 20.8268 0.259377 1.511739 2.830078
2009-06-17 08:45:21 51°15.597 2°48.223 20.8632 0.259377 1.511739 2.830078
2009-06-17 08:45:26 51°15.604 2°48.201 20.8512 0.259377 1.511739 2.830078
2009-06-17 08:45:31 51°15.611 2°48.178 20.8413 0.259377 1.511712 2.830078
2009-06-17 08:45:36 51°15.618 2°48.155 20.8622 0.259377 1.511712 2.830078
2009-06-17 08:45:41 51°15.626 2°48.132 20.8277 0.259377 1.511739 2.830078
2009-06-17 08:45:46 51°15.633 2°48.11 20.8561 0.259377 1.511684 2.830078
2009-06-17 08:45:51 51°15.64 2°48.087 20.8459 0.259377 1.511712 2.830078
2009-06-17 08:45:56 51°15.648 2°48.064 20.8645 0.259377 1.511712 2.830078
2009-06-17 08:46:01 51°15.655 2°48.042 20.8654 0.259377 1.511739 2.830078
2009-06-17 08:46:05 51°15.66 2°48.024 20.8526 0.259377 1.511739 2.830078
2009-06-17 08:46:11 51°15.669 2°47.996 20.8535 0.259377 1.511739 2.830078
2009-06-17 08:46:16 51°15.676 2°47.973 20.8763 0.259377 1.511712 2.830078
2009-06-17 08:46:21 51°15.684 2°47.951 20.8464 0.259377 1.511712 2.830078
2009-06-17 08:46:26 51°15.691 2°47.928 20.8727 0.259377 1.511712 2.830078
2009-06-17 08:46:31 51°15.698 2°47.905 20.8622 0.259377 1.511712 2.830078
2009-06-17 08:46:36 51°15.705 2°47.883 20.8459 0.259377 1.511712 2.830078
2009-06-17 08:46:41 51°15.713 2°47.86 20.829 0.259377 1.511712 2.830078
2009-06-17 08:46:46 51°15.72 2°47.837 20.8599 0.259377 1.511712 2.830078
2009-06-17 08:46:51 51°15.727 2°47.814 20.8563 0.259377 1.511739 2.830078
2009-06-17 08:46:56 51°15.735 2°47.792 20.8751 0.259377 1.511739 2.830078
2009-06-17 08:47:01 51°15.742 2°47.769 20.8698 0.259377 1.511739 2.830078
2009-06-17 08:47:06 51°15.75 2°47.747 20.8528 0.259377 1.511712 2.830078
2009-06-17 08:47:11 51°15.757 2°47.724 20.8536 0.259377 1.511712 2.830078
2009-06-17 08:47:16 51°15.765 2°47.701 20.8617 0.259377 1.511712 2.830078
2009-06-17 08:47:21 51°15.772 2°47.679 20.8472 0.259377 1.511684 2.830078
2009-06-17 08:47:26 51°15.78 2°47.657 20.8475 0.259377 1.511684 2.830078
2009-06-17 08:47:31 51°15.787 2°47.634 20.8654 0.259377 1.511712 2.830078
2009-06-17 08:47:36 51°15.795 2°47.611 20.8456 0.259377 1.511712 2.830078
2009-06-17 08:47:41 51°15.803 2°47.589 20.852 0.259377 1.511712 2.830078
2009-06-17 08:47:46 51°15.81 2°47.566 20.8799 0.259377 1.511712 2.830078
2009-06-17 08:47:51 51°15.818 2°47.544 20.8775 0.259377 1.511712 2.830078
2009-06-17 08:47:56 51°15.825 2°47.521 20.8841 0.259377 1.511712 2.830078
2009-06-17 08:48:01 51°15.833 2°47.499 20.8629 0.259377 1.511739 2.830078
2009-06-17 08:48:06 51°15.84 2°47.476 20.8793 0.259377 1.511712 2.830078
2009-06-17 08:48:11 51°15.847 2°47.454 20.8688 0.259377 1.511739 2.830078
2009-06-17 08:48:16 51°15.854 2°47.431 20.8795 0.259377 1.511712 2.830078
2009-06-17 08:48:21 51°15.861 2°47.408 20.8376 0.259377 1.511684 2.830078
2009-06-17 08:48:26 51°15.868 2°47.385 20.8717 0.259377 1.511684 2.830078
2009-06-17 08:48:31 51°15.876 2°47.363 20.8737 0.259377 1.511712 2.830078
2009-06-17 08:48:36 51°15.883 2°47.34 20.8536 0.259377 1.511684 2.830078
2009-06-17 08:48:41 51°15.89 2°47.317 20.8774 0.259377 1.511684 2.830078
2009-06-17 08:48:46 51°15.897 2°47.294 20.8817 0.259377 1.511712 2.830078
2009-06-17 08:48:51 51°15.904 2°47.272 20.8535 0.259377 1.511712 2.830078
2009-06-17 08:48:56 51°15.911 2°47.249 20.876 0.259377 1.511712 2.830078
2009-06-17 08:49:01 51°15.918 2°47.226 20.867 0.259377 1.511712 2.830078
2009-06-17 08:49:05 51°15.924 2°47.208 20.8728 0.259377 1.511684 2.830078
2009-06-17 08:49:11 51°15.933 2°47.181 20.8798 0.259377 1.511712 2.830078
2009-06-17 08:49:16 51°15.94 2°47.158 20.8789 0.259377 1.511684 2.830078
2009-06-17 08:49:21 51°15.948 2°47.136 20.8784 0.259377 1.511684 2.830078
2009-06-17 08:49:26 51°15.955 2°47.113 20.883 0.259377 1.511684 2.830078
2009-06-17 08:49:31 51°15.962 2°47.09 20.8808 0.259377 1.511684 2.830078
2009-06-17 08:49:36 51°15.969 2°47.067 20.8581 0.259377 1.511712 2.830078
2009-06-17 08:49:41 51°15.977 2°47.045 20.8815 0.259377 1.511712 2.830078
2009-06-17 08:49:46 51°15.984 2°47.022 20.853 0.259377 1.511684 2.830078
2009-06-17 08:49:51 51°15.991 2°46.999 20.8955 0.259377 1.511712 2.830078
2009-06-17 08:49:56 51°15.999 2°46.977 20.864 0.259377 1.511712 2.830078
2009-06-17 08:50:01 51°16.006 2°46.954 20.8882 0.259377 1.511684 2.830078
2009-06-17 08:50:06 51°16.013 2°46.931 20.8661 0.259377 1.511684 2.830078
2009-06-17 08:50:11 51°16.02 2°46.909 20.8949 0.259377 1.511684 2.830078
2009-06-17 08:50:16 51°16.028 2°46.886 20.8694 0.259377 1.511684 2.830078
2009-06-17 08:50:21 51°16.035 2°46.864 20.8909 0.259377 1.511712 2.830078
2009-06-17 08:50:26 51°16.042 2°46.841 20.8453 0.259377 1.511712 2.830078
2009-06-17 08:50:31 51°16.049 2°46.818 20.8934 0.259377 1.511712 2.830078
2009-06-17 08:50:36 51°16.057 2°46.796 20.8494 0.259377 1.511712 2.830078
2009-06-17 08:50:41 51°16.063 2°46.773 20.8946 0.259377 1.511657 2.830078
2009-06-17 08:50:46 51°16.071 2°46.751 20.8708 0.259377 1.511684 2.830078
2009-06-17 08:50:51 51°16.077 2°46.728 20.8935 0.259377 1.511684 2.830078
2009-06-17 08:50:56 51°16.085 2°46.705 20.8652 0.259377 1.511684 2.830078
2009-06-17 08:51:01 51°16.092 2°46.683 20.8992 0.259377 1.511684 2.830078
2009-06-17 08:51:06 51°16.099 2°46.66 20.8619 0.259377 1.511712 2.830078
2009-06-17 08:51:11 51°16.106 2°46.637 20.9011 0.259377 1.511684 2.830078
2009-06-17 08:51:16 51°16.113 2°46.614 20.8864 0.259377 1.511684 2.830078
2009-06-17 08:51:21 51°16.12 2°46.592 20.9062 0.259377 1.511684 2.795254
2009-06-17 08:51:26 51°16.128 2°46.569 20.8854 0.259377 1.511684 2.795254
2009-06-17 08:51:31 51°16.135 2°46.547 20.9016 0.259377 1.511657 2.830078
2009-06-17 08:51:36 51°16.143 2°46.524 20.8812 0.259377 1.511657 2.830078
2009-06-17 08:51:41 51°16.15 2°46.502 20.905 0.259377 1.511684 2.830078
2009-06-17 08:51:46 51°16.158 2°46.479 20.8908 0.259377 1.511684 2.830078
2009-06-17 08:51:51 51°16.165 2°46.457 20.8971 0.259377 1.511684 2.795254
2009-06-17 08:51:56 51°16.172 2°46.435 20.9153 0.259377 1.511684 2.795254
2009-06-17 08:52:01 51°16.18 2°46.413 20.8714 0.259377 1.511712 2.830078
2009-06-17 08:52:06 51°16.186 2°46.39 20.9162 0.259377 1.511684 2.830078
2009-06-17 08:52:11 51°16.194 2°46.368 20.902 0.259377 1.511712 2.830078
2009-06-17 08:52:16 51°16.2 2°46.345 20.9076 0.259377 1.511684 2.830078
2009-06-17 08:52:21 51°16.208 2°46.323 20.9121 0.259377 1.511684 2.830078
2009-06-17 08:52:26 51°16.215 2°46.3 20.9162 0.259377 1.511684 2.830078
2009-06-17 08:52:31 51°16.223 2°46.278 20.8954 0.259377 1.511684 2.830078
2009-06-17 08:52:36 51°16.23 2°46.255 20.8816 0.259377 1.511684 2.830078
2009-06-17 08:52:41 51°16.238 2°46.233 20.8806 0.259377 1.511712 2.795254
2009-06-17 08:52:45 51°16.243 2°46.215 20.9044 0.259377 1.511712 2.830078
2009-06-17 08:52:51 51°16.251 2°46.187 20.9102 0.259377 1.511712 2.830078
2009-06-17 08:52:56 51°16.259 2°46.165 20.8948 0.259377 1.511712 2.830078
2009-06-17 08:53:01 51°16.265 2°46.142 20.9192 0.259377 1.511684 2.830078
2009-06-17 08:53:06 51°16.272 2°46.119 20.9015 0.259377 1.511657 2.830078
2009-06-17 08:53:11 51°16.279 2°46.096 20.9162 0.259377 1.511629 2.830078
2009-06-17 08:53:16 51°16.287 2°46.073 20.8954 0.259377 1.511657 2.830078
2009-06-17 08:53:21 51°16.294 2°46.05 20.9164 0.259377 1.511657 2.830078
2009-06-17 08:53:25 51°16.3 2°46.032 20.9062 0.259377 1.511657 2.830078
2009-06-17 08:53:31 51°16.308 2°46.005 20.9064 0.259377 1.511657 2.830078
2009-06-17 08:53:36 51°16.316 2°45.982 20.8964 0.259377 1.511684 2.795254
2009-06-17 08:53:41 51°16.323 2°45.96 20.8947 0.259377 1.511684 2.830078
2009-06-17 08:53:46 51°16.331 2°45.937 20.8839 0.259377 1.511684 2.830078
2009-06-17 08:53:51 51°16.339 2°45.915 20.9007 0.259377 1.511684 2.795254
2009-06-17 08:53:56 51°16.348 2°45.893 20.8869 0.259377 1.511684 2.795254
2009-06-17 08:54:01 51°16.356 2°45.87 20.8988 0.259377 1.511657 2.830078
2009-06-17 08:54:06 51°16.364 2°45.849 20.919 0.259377 1.511684 2.830078
2009-06-17 08:54:11 51°16.373 2°45.826 20.8982 0.259377 1.511657 2.830078
2009-06-17 08:54:16 51°16.381 2°45.804 20.935 0.259377 1.511629 2.830078
2009-06-17 08:54:21 51°16.39 2°45.782 20.8929 0.259377 1.511629 2.830078
2009-06-17 08:54:26 51°16.398 2°45.76 20.9129 0.259377 1.511629 2.830078
2009-06-17 08:54:31 51°16.407 2°45.738 20.9196 0.259377 1.511629 2.830078
2009-06-17 08:54:36 51°16.416 2°45.716 20.9106 0.259377 1.511657 2.795254
2009-06-17 08:54:41 51°16.425 2°45.694 20.9085 0.259377 1.511657 2.830078
2009-06-17 08:54:45 51°16.432 2°45.677 20.9117 0.259377 1.511657 2.830078
2009-06-17 08:54:51 51°16.442 2°45.65 20.9248 0.259377 1.511684 2.830078
2009-06-17 08:54:56 51°16.451 2°45.628 20.9141 0.259377 1.511684 2.830078
2009-06-17 08:55:01 51°16.46 2°45.606 20.9259 0.259377 1.511684 2.830078
2009-06-17 08:55:05 51°16.467 2°45.588 20.9332 0.259377 1.511684 2.830078
2009-06-17 08:55:11 51°16.477 2°45.561 20.9326 0.259377 1.511684 2.830078
2009-06-17 08:55:16 51°16.485 2°45.539 20.9255 0.259377 1.511684 2.830078
2009-06-17 08:55:21 51°16.494 2°45.517 20.9308 0.259377 1.511657 2.830078
2009-06-17 08:55:26 51°16.502 2°45.494 20.9041 0.259377 1.511657 2.830078
2009-06-17 08:55:31 51°16.51 2°45.472 20.9071 0.259377 1.511657 2.830078
2009-06-17 08:55:36 51°16.518 2°45.449 20.9105 0.259377 1.511657 2.830078
2009-06-17 08:55:41 51°16.526 2°45.427 20.8948 0.259377 1.511657 2.795254
2009-06-17 08:55:46 51°16.535 2°45.404 20.9363 0.259377 1.511657 2.830078
2009-06-17 08:55:51 51°16.543 2°45.382 20.9257 0.259377 1.511684 2.830078
2009-06-17 08:55:56 51°16.551 2°45.36 20.9243 0.259377 1.511684 2.830078
2009-06-17 08:56:01 51°16.56 2°45.337 20.9177 0.259377 1.511684 2.795254
2009-06-17 08:56:06 51°16.568 2°45.315 20.933 0.259377 1.511684 2.830078
2009-06-17 08:56:11 51°16.576 2°45.292 20.9357 0.259377 1.511657 2.795254
2009-06-17 08:56:16 51°16.584 2°45.27 20.9356 0.259377 1.511657 2.830078
2009-06-17 08:56:21 51°16.593 2°45.248 20.9351 0.259377 1.511629 2.795254
2009-06-17 08:56:26 51°16.601 2°45.225 20.947 0.259377 1.511629 2.795254
2009-06-17 08:56:31 51°16.609 2°45.203 20.9267 0.259377 1.511629 2.830078
2009-06-17 08:56:36 51°16.617 2°45.181 20.8976 0.259377 1.511629 2.830078
2009-06-17 08:56:41 51°16.626 2°45.159 20.9058 0.259377 1.511629 2.830078
2009-06-17 08:56:45 51°16.633 2°45.141 20.9178 0.259377 1.511657 2.830078
2009-06-17 08:56:51 51°16.643 2°45.115 20.9432 0.259377 1.511657 2.830078
2009-06-17 08:56:56 51°16.652 2°45.093 20.9261 0.259377 1.511657 2.830078
2009-06-17 08:57:01 51°16.661 2°45.071 20.9162 0.259377 1.511657 2.830078
2009-06-17 08:57:06 51°16.67 2°45.049 20.9149 0.259377 1.511629 2.795254
2009-06-17 08:57:11 51°16.678 2°45.027 20.9431 0.259377 1.511629 2.830078
2009-06-17 08:57:16 51°16.687 2°45.005 20.9461 0.259377 1.511657 2.830078
2009-06-17 08:57:21 51°16.695 2°44.982 20.9394 0.259377 1.511629 2.830078
2009-06-17 08:57:25 51°16.702 2°44.965 20.9411 0.259377 1.511629 2.830078
2009-06-17 08:57:31 51°16.712 2°44.938 20.943 0.259377 1.511602 2.795254
2009-06-17 08:57:36 51°16.721 2°44.916 20.9528 0.259377 1.511629 2.830078
2009-06-17 08:57:41 51°16.729 2°44.894 20.9511 0.259377 1.511602 2.830078
2009-06-17 08:57:46 51°16.738 2°44.871 20.9518 0.259377 1.511629 2.830078
2009-06-17 08:57:51 51°16.747 2°44.849 20.9461 0.259377 1.511629 2.830078
2009-06-17 08:57:56 51°16.755 2°44.827 20.9226 0.259377 1.511629 2.830078
2009-06-17 08:58:01 51°16.764 2°44.805 20.9417 0.259377 1.511629 2.830078
2009-06-17 08:58:06 51°16.773 2°44.782 20.942 0.259377 1.511629 2.830078
2009-06-17 08:58:11 51°16.781 2°44.76 20.9482 0.259377 1.511602 2.830078
2009-06-17 08:58:16 51°16.79 2°44.737 20.9504 0.259377 1.511602 2.830078
2009-06-17 08:58:21 51°16.799 2°44.715 20.9425 0.259377 1.511602 2.830078
2009-06-17 08:58:26 51°16.807 2°44.692 20.9315 0.259377 1.511602 2.830078
2009-06-17 08:58:31 51°16.816 2°44.67 20.9258 0.259377 1.511574 2.830078
2009-06-17 08:58:36 51°16.824 2°44.647 20.9455 0.259377 1.511602 2.830078
2009-06-17 08:58:41 51°16.833 2°44.625 20.9536 0.259377 1.511574 2.830078
2009-06-17 08:58:45 51°16.84 2°44.607 20.959 0.259377 1.511602 2.830078
2009-06-17 08:58:51 51°16.85 2°44.58 20.9407 0.259377 1.511602 2.830078
2009-06-17 08:58:56 51°16.858 2°44.557 20.9481 0.259377 1.511602 2.830078
2009-06-17 08:59:01 51°16.867 2°44.535 20.9447 0.259377 1.511574 2.795254
2009-06-17 08:59:05 51°16.874 2°44.517 20.9105 0.259377 1.511602 2.795254
2009-06-17 08:59:11 51°16.884 2°44.49 20.9143 0.259377 1.511574 2.795254
2009-06-17 08:59:16 51°16.893 2°44.468 20.9177 0.259377 1.511574 2.795254
2009-06-17 08:59:21 51°16.901 2°44.445 20.9489 0.259377 1.511574 2.830078
2009-06-17 08:59:26 51°16.91 2°44.422 20.9674 0.259377 1.511574 2.830078
2009-06-17 08:59:31 51°16.918 2°44.4 20.965 0.259377 1.511574 2.830078
2009-06-17 08:59:36 51°16.926 2°44.377 20.9641 0.259377 1.511574 2.795254
2009-06-17 08:59:41 51°16.935 2°44.355 20.9439 0.259377 1.511574 2.795254
2009-06-17 08:59:45 51°16.941 2°44.337 20.9323 0.259377 1.511602 2.830078
2009-06-17 08:59:51 51°16.951 2°44.31 20.9532 0.259377 1.511574 2.830078
2009-06-17 08:59:56 51°16.959 2°44.287 20.9388 0.259377 1.511574 2.830078
2009-06-17 09:00:01 51°16.967 2°44.264 20.9515 0.259377 1.511546 2.830078
2009-06-17 09:00:06 51°16.974 2°44.241 20.9643 0.259377 1.511546 2.830078
2009-06-17 09:00:11 51°16.983 2°44.219 20.9525 0.259377 1.511546 2.830078
2009-06-17 09:00:16 51°16.991 2°44.197 20.9491 0.259377 1.511574 2.795254
2009-06-17 09:00:21 51°16.999 2°44.174 20.965 0.259377 1.511574 2.830078
2009-06-17 09:00:26 51°17.007 2°44.152 20.9383 0.259377 1.511574 2.830078
2009-06-17 09:00:31 51°17.015 2°44.129 20.9625 0.259377 1.511574 2.795254
2009-06-17 09:00:36 51°17.023 2°44.106 20.9534 0.259377 1.511546 2.830078
2009-06-17 09:00:41 51°17.032 2°44.084 20.951 0.259377 1.511546 2.795254
2009-06-17 09:00:46 51°17.04 2°44.061 20.9661 0.259377 1.511546 2.830078
2009-06-17 09:00:51 51°17.048 2°44.039 20.9649 0.259377 1.511546 2.830078
2009-06-17 09:00:56 51°17.056 2°44.016 20.9735 0.259377 1.511546 2.830078
2009-06-17 09:01:01 51°17.064 2°43.994 20.9597 0.259377 1.511546 2.830078
2009-06-17 09:01:05 51°17.071 2°43.976 20.9664 0.259377 1.511519 2.830078
2009-06-17 09:01:11 51°17.081 2°43.949 20.9409 0.259377 1.511546 2.795254
2009-06-17 09:01:16 51°17.089 2°43.926 20.9681 0.259377 1.511546 2.795254
2009-06-17 09:01:21 51°17.097 2°43.904 20.965 0.259377 1.511546 2.830078
2009-06-17 09:01:25 51°17.103 2°43.886 20.9653 0.259377 1.511546 2.830078
2009-06-17 09:01:31 51°17.113 2°43.859 20.955 0.259377 1.511546 2.830078
2009-06-17 09:01:36 51°17.121 2°43.836 20.9662 0.259377 1.511519 2.830078
2009-06-17 09:01:41 51°17.129 2°43.813 20.9593 0.259377 1.511519 2.830078
2009-06-17 09:01:46 51°17.137 2°43.79 20.9831 0.259377 1.511519 2.830078
2009-06-17 09:01:51 51°17.145 2°43.768 20.9736 0.259377 1.511519 2.830078
2009-06-17 09:01:56 51°17.153 2°43.746 20.9777 0.259377 1.511519 2.830078
2009-06-17 09:02:01 51°17.162 2°43.723 20.9893 0.259377 1.511519 2.830078
2009-06-17 09:02:06 51°17.17 2°43.7 20.9485 0.259377 1.511546 2.830078
2009-06-17 09:02:11 51°17.178 2°43.677 20.9738 0.259377 1.511546 2.795254
2009-06-17 09:02:16 51°17.186 2°43.655 20.9691 0.259377 1.511519 2.830078
2009-06-17 09:02:21 51°17.195 2°43.632 20.9741 0.259377 1.511519 2.830078
2009-06-17 09:02:26 51°17.203 2°43.61 20.9719 0.259377 1.511519 2.830078
2009-06-17 09:02:31 51°17.211 2°43.587 20.9825 0.259377 1.511491 2.830078
2009-06-17 09:02:36 51°17.22 2°43.565 20.983 0.259377 1.511491 2.830078
2009-06-17 09:02:41 51°17.228 2°43.543 20.9801 0.259377 1.511491 2.830078
2009-06-17 09:02:45 51°17.235 2°43.525 20.986 0.259377 1.511491 2.830078
2009-06-17 09:02:51 51°17.245 2°43.498 20.9713 0.259377 1.511519 2.830078
2009-06-17 09:02:56 51°17.253 2°43.475 20.9854 0.259377 1.511519 2.830078
2009-06-17 09:03:01 51°17.262 2°43.453 20.9676 0.259377 1.511519 2.830078
2009-06-17 09:03:06 51°17.27 2°43.43 20.9705 0.259377 1.511519 2.830078
2009-06-17 09:03:11 51°17.278 2°43.407 20.9768 0.259377 1.511519 2.830078
2009-06-17 09:03:16 51°17.287 2°43.385 20.9924 0.259377 1.511491 2.830078
2009-06-17 09:03:21 51°17.295 2°43.362 20.9887 0.259377 1.511491 2.830078
2009-06-17 09:03:25 51°17.301 2°43.344 20.9887 0.259377 1.511491 2.830078
2009-06-17 09:03:31 51°17.311 2°43.317 20.98 0.259377 1.511491 2.830078
2009-06-17 09:03:36 51°17.319 2°43.295 20.9736 0.259377 1.511464 2.830078
2009-06-17 09:03:41 51°17.327 2°43.272 20.9604 0.259377 1.511464 2.830078
2009-06-17 09:03:46 51°17.335 2°43.25 21.0063 0.259377 1.511519 2.830078
2009-06-17 09:03:51 51°17.343 2°43.227 20.993 0.259377 1.511491 2.830078
2009-06-17 09:03:56 51°17.352 2°43.205 20.9636 0.259377 1.511491 2.830078
2009-06-17 09:04:01 51°17.359 2°43.182 20.981 0.259377 1.511464 2.830078
2009-06-17 09:04:06 51°17.368 2°43.16 20.9911 0.259377 1.511464 2.830078
2009-06-17 09:04:11 51°17.376 2°43.137 20.9967 0.259377 1.511464 2.830078
2009-06-17 09:04:16 51°17.385 2°43.115 20.9969 0.259377 1.511491 2.830078
2009-06-17 09:04:21 51°17.393 2°43.093 21.007 0.259377 1.511464 2.830078
2009-06-17 09:04:26 51°17.402 2°43.07 20.9946 0.259377 1.511464 2.830078
2009-06-17 09:04:32 51°17.411 2°43.043 20.995 0.259377 1.511491 2.830078
2009-06-17 09:04:36 51°17.418 2°43.025 20.9927 0.259377 1.511436 2.830078
2009-06-17 09:04:41 51°17.427 2°43.003 20.9851 0.259377 1.511464 2.830078
2009-06-17 09:04:46 51°17.435 2°42.981 21.0249 0.259377 1.511464 2.830078
2009-06-17 09:04:51 51°17.444 2°42.958 21.0065 0.259377 1.511436 2.830078
2009-06-17 09:04:57 51°17.454 2°42.932 21.0235 0.259377 1.511436 2.830078
2009-06-17 09:05:01 51°17.46 2°42.914 20.993 0.259377 1.511464 2.795254
2009-06-17 09:05:05 51°17.467 2°42.897 21.0212 0.259377 1.511464 2.795254
2009-06-17 09:05:11 51°17.477 2°42.87 20.9926 0.259377 1.511464 2.830078
2009-06-17 09:05:16 51°17.485 2°42.848 21.0229 0.259377 1.511464 2.795254
2009-06-17 09:05:21 51°17.493 2°42.825 21.007 0.259377 1.511436 2.830078
2009-06-17 09:05:26 51°17.501 2°42.802 21.0267 0.259377 1.511436 2.830078
2009-06-17 09:05:31 51°17.51 2°42.78 20.9808 0.259377 1.511464 2.830078
2009-06-17 09:05:36 51°17.517 2°42.757 21.0137 0.259377 1.511409 2.830078
2009-06-17 09:05:41 51°17.526 2°42.735 20.9837 0.259377 1.511464 2.795254
2009-06-17 09:05:46 51°17.534 2°42.712 21.0176 0.259377 1.511436 2.795254
2009-06-17 09:05:51 51°17.543 2°42.69 20.9994 0.259377 1.511436 2.830078
2009-06-17 09:05:56 51°17.552 2°42.668 21.0207 0.259377 1.511436 2.830078
2009-06-17 09:06:01 51°17.561 2°42.646 20.9772 0.259377 1.511464 2.795254
2009-06-17 09:06:06 51°17.569 2°42.624 21.0116 0.259377 1.511436 2.795254
2009-06-17 09:06:11 51°17.578 2°42.601 20.9737 0.259377 1.511464 2.795254
2009-06-17 09:06:16 51°17.585 2°42.578 21.001 0.259377 1.511409 2.795254
2009-06-17 09:06:21 51°17.594 2°42.556 21.0049 0.259377 1.511436 2.795254
2009-06-17 09:06:25 51°17.6 2°42.537 20.9893 0.259377 1.511436 2.795254
2009-06-17 09:06:31 51°17.61 2°42.51 21.0152 0.259377 1.511381 2.795254
2009-06-17 09:06:36 51°17.617 2°42.487 21.0273 0.259377 1.511409 2.795254
2009-06-17 09:06:41 51°17.625 2°42.465 21.0132 0.259377 1.511436 2.795254
2009-06-17 09:06:46 51°17.633 2°42.442 21.013 0.259377 1.511436 2.795254
2009-06-17 09:06:51 51°17.641 2°42.419 21.0114 0.259377 1.511436 2.795254
2009-06-17 09:06:56 51°17.648 2°42.396 21.0023 0.259377 1.511436 2.795254
2009-06-17 09:07:01 51°17.656 2°42.373 21.0148 0.259274 1.510803 2.795254
2009-06-17 09:07:05 51°17.662 2°42.355 21.029 0.259377 1.511464 2.795254
2009-06-17 09:07:11 51°17.672 2°42.327 21.0144 0.259274 1.51083 2.795254
2009-06-17 09:07:16 51°17.679 2°42.304 21.0195 0.259377 1.511409 2.795254
2009-06-17 09:07:21 51°17.686 2°42.281 21.0185 0.259377 1.511436 2.795254
2009-06-17 09:07:26 51°17.693 2°42.258 20.9966 0.259377 1.511436 2.795254
2009-06-17 09:07:31 51°17.7 2°42.234 21.009 0.259377 1.511409 2.795254
2009-06-17 09:07:36 51°17.707 2°42.211 21.023 0.259377 1.511409 2.795254
2009-06-17 09:07:41 51°17.715 2°42.188 21.0364 0.259377 1.511436 2.795254
2009-06-17 09:07:45 51°17.721 2°42.17 21.0186 0.259377 1.511409 2.795254
2009-06-17 09:07:51 51°17.73 2°42.143 21.0099 0.259377 1.511436 2.795254
2009-06-17 09:07:56 51°17.737 2°42.119 21.0335 0.259377 1.511436 2.795254
2009-06-17 09:08:01 51°17.745 2°42.097 20.999 0.259377 1.511436 2.795254
2009-06-17 09:08:06 51°17.752 2°42.073 21.0144 0.259377 1.511409 2.795254
2009-06-17 09:08:11 51°17.759 2°42.05 21.0305 0.259377 1.511436 2.795254
2009-06-17 09:08:16 51°17.766 2°42.027 21.0228 0.259274 1.510803 2.795254
2009-06-17 09:08:21 51°17.773 2°42.004 21.0258 0.259377 1.511381 2.795254
2009-06-17 09:08:25 51°17.779 2°41.985 21.0265 0.259377 1.511381 2.795254
2009-06-17 09:08:31 51°17.787 2°41.958 21.0178 0.259377 1.511409 2.795254
2009-06-17 09:08:36 51°17.794 2°41.934 21.0258 0.259377 1.511409 2.795254
2009-06-17 09:08:41 51°17.802 2°41.911 21.0315 0.259377 1.511409 2.795254
2009-06-17 09:08:46 51°17.809 2°41.888 21.0208 0.259377 1.511409 2.795254
2009-06-17 09:08:51 51°17.817 2°41.865 21.0269 0.259377 1.511436 2.795254
2009-06-17 09:08:56 51°17.824 2°41.842 21.0374 0.259377 1.511436 2.795254
2009-06-17 09:09:01 51°17.832 2°41.819 21.0272 0.259274 1.510803 2.795254
2009-06-17 09:09:06 51°17.839 2°41.796 21.0328 0.259377 1.511436 2.795254
2009-06-17 09:09:11 51°17.845 2°41.773 21.0491 0.259377 1.511409 2.795254
2009-06-17 09:09:16 51°17.853 2°41.75 21.0502 0.259377 1.511409 2.795254
2009-06-17 09:09:21 51°17.86 2°41.726 21.0021 0.259377 1.511381 2.795254
2009-06-17 09:09:26 51°17.866 2°41.703 21.0382 0.259377 1.511381 2.795254
2009-06-17 09:09:31 51°17.874 2°41.679 21.0384 0.259377 1.511409 2.795254
2009-06-17 09:09:36 51°17.881 2°41.656 21.0559 0.259377 1.511381 2.795254
2009-06-17 09:09:41 51°17.888 2°41.633 21.0354 0.259274 1.510775 2.795254
2009-06-17 09:09:46 51°17.895 2°41.61 21.0451 0.259377 1.511409 2.795254
2009-06-17 09:09:51 51°17.903 2°41.587 21.0234 0.259274 1.510803 2.795254
2009-06-17 09:09:56 51°17.91 2°41.563 21.0517 0.259274 1.510803 2.795254
2009-06-17 09:10:01 51°17.918 2°41.541 21.0297 0.259377 1.511436 2.795254
2009-06-17 09:10:05 51°17.923 2°41.522 21.0551 0.259377 1.511381 2.795254
2009-06-17 09:10:11 51°17.932 2°41.494 21.0368 0.259377 1.511409 2.795254
2009-06-17 09:10:16 51°17.939 2°41.471 21.0455 0.259274 1.510775 2.795254
2009-06-17 09:10:21 51°17.947 2°41.448 21.0445 0.259377 1.511409 2.795254
2009-06-17 09:10:26 51°17.954 2°41.424 21.052 0.259377 1.511409 2.795254
2009-06-17 09:10:31 51°17.961 2°41.401 21.0341 0.259377 1.511409 2.795254
2009-06-17 09:10:36 51°17.967 2°41.377 21.0478 0.259274 1.510748 2.795254
2009-06-17 09:10:41 51°17.974 2°41.354 21.0613 0.259274 1.510748 2.795254
2009-06-17 09:10:46 51°17.981 2°41.331 21.0388 0.259274 1.510748 2.795254
2009-06-17 09:10:51 51°17.988 2°41.307 21.0516 0.259377 1.511381 2.795254
2009-06-17 09:10:56 51°17.995 2°41.284 21.0612 0.259377 1.511381 2.795254
2009-06-17 09:11:01 51°18.002 2°41.261 21.0454 0.259274 1.510775 2.795254
2009-06-17 09:11:06 51°18.009 2°41.237 21.0605 0.259377 1.511409 2.795254
2009-06-17 09:11:11 51°18.016 2°41.214 21.0587 0.259377 1.511409 2.795254
2009-06-17 09:11:16 51°18.023 2°41.19 21.0718 0.259274 1.510775 2.795254
2009-06-17 09:11:21 51°18.03 2°41.167 21.0429 0.259274 1.510775 2.795254
2009-06-17 09:11:26 51°18.037 2°41.144 21.0612 0.259274 1.510775 2.795254
2009-06-17 09:11:31 51°18.044 2°41.12 21.0301 0.259274 1.510748 2.795254
2009-06-17 09:11:36 51°18.05 2°41.096 21.0778 0.259377 1.511326 2.795254
2009-06-17 09:11:41 51°18.058 2°41.073 21.0539 0.259274 1.510775 2.795254
2009-06-17 09:11:46 51°18.064 2°41.049 21.0665 0.259377 1.511381 2.795254
2009-06-17 09:11:51 51°18.071 2°41.026 21.0612 0.259274 1.510748 2.795254
2009-06-17 09:11:57 51°18.079 2°40.998 21.0564 0.259274 1.510748 2.795254
2009-06-17 09:12:01 51°18.085 2°40.98 21.0621 0.259377 1.511353 2.795254
2009-06-17 09:12:06 51°18.092 2°40.956 21.0656 0.259274 1.510748 2.795254
2009-06-17 09:12:11 51°18.099 2°40.933 21.0619 0.259377 1.511381 2.795254
2009-06-17 09:12:16 51°18.106 2°40.909 21.0648 0.259377 1.511381 2.795254
2009-06-17 09:12:21 51°18.113 2°40.886 21.0573 0.259274 1.510748 2.795254
2009-06-17 09:12:26 51°18.119 2°40.863 21.0669 0.259274 1.510748 2.795254
2009-06-17 09:12:31 51°18.126 2°40.84 21.0509 0.259274 1.510748 2.795254
2009-06-17 09:12:36 51°18.132 2°40.816 21.07 0.259377 1.511381 2.795254
2009-06-17 09:12:41 51°18.139 2°40.793 21.0657 0.259274 1.510748 2.795254
2009-06-17 09:12:46 51°18.146 2°40.77 21.0608 0.259274 1.51072 2.795254
2009-06-17 09:12:51 51°18.153 2°40.746 21.0775 0.259274 1.510748 2.795254
2009-06-17 09:12:56 51°18.159 2°40.723 21.0728 0.259274 1.510748 2.795254
2009-06-17 09:13:01 51°18.167 2°40.7 21.0713 0.259274 1.51072 2.795254
2009-06-17 09:13:06 51°18.173 2°40.676 21.0593 0.259377 1.511381 2.795254
2009-06-17 09:13:11 51°18.18 2°40.653 21.0717 0.259274 1.510748 2.795254
2009-06-17 09:13:16 51°18.188 2°40.63 21.0854 0.259274 1.510748 2.795254
2009-06-17 09:13:21 51°18.194 2°40.607 21.082 0.259274 1.51072 2.795254
2009-06-17 09:13:26 51°18.202 2°40.584 21.0659 0.259274 1.51072 2.795254
2009-06-17 09:13:31 51°18.209 2°40.561 21.0846 0.259274 1.51072 2.795254
2009-06-17 09:13:36 51°18.216 2°40.538 21.0787 0.259274 1.51072 2.795254
2009-06-17 09:13:41 51°18.223 2°40.514 21.0883 0.259274 1.51072 2.795254
2009-06-17 09:13:46 51°18.231 2°40.491 21.0597 0.259274 1.51072 2.795254
2009-06-17 09:13:51 51°18.238 2°40.468 21.0748 0.259274 1.51072 2.795254
2009-06-17 09:13:56 51°18.246 2°40.446 21.0824 0.259274 1.51072 2.795254
2009-06-17 09:14:01 51°18.253 2°40.423 21.0748 0.259274 1.51072 2.795254
2009-06-17 09:14:06 51°18.261 2°40.401 21.0915 0.259274 1.51072 2.795254
2009-06-17 09:14:11 51°18.269 2°40.379 21.0792 0.259274 1.510748 2.795254
2009-06-17 09:14:16 51°18.277 2°40.356 21.1061 0.259377 1.511353 2.795254
2009-06-17 09:14:21 51°18.285 2°40.334 21.0573 0.259274 1.51072 2.795254
2009-06-17 09:14:26 51°18.292 2°40.312 21.0902 0.259274 1.51072 2.795254
2009-06-17 09:14:31 51°18.3 2°40.29 21.0871 0.259377 1.511381 2.76043
2009-06-17 09:14:36 51°18.307 2°40.267 21.0897 0.259274 1.51072 2.795254
2009-06-17 09:14:41 51°18.315 2°40.245 21.0675 0.259274 1.51072 2.795254
2009-06-17 09:14:46 51°18.322 2°40.222 21.0944 0.259274 1.510693 2.76043
2009-06-17 09:14:51 51°18.33 2°40.2 21.0571 0.259377 1.511353 2.795254
2009-06-17 09:14:56 51°18.337 2°40.178 21.085 0.259377 1.511353 2.795254
2009-06-17 09:15:01 51°18.345 2°40.156 21.0882 0.259274 1.51072 2.795254
2009-06-17 09:15:05 51°18.351 2°40.138 21.1059 0.259274 1.510693 2.795254
2009-06-17 09:15:11 51°18.361 2°40.112 21.0606 0.259274 1.510748 2.76043
2009-06-17 09:15:16 51°18.368 2°40.09 21.0868 0.259274 1.51072 2.795254
2009-06-17 09:15:21 51°18.376 2°40.068 21.0948 0.259274 1.51072 2.795254
2009-06-17 09:15:26 51°18.384 2°40.045 21.0791 0.259274 1.51072 2.795254
2009-06-17 09:15:31 51°18.391 2°40.023 21.0991 0.259274 1.510693 2.795254
2009-06-17 09:15:36 51°18.399 2°40.001 21.0958 0.259274 1.510693 2.76043
2009-06-17 09:15:41 51°18.407 2°39.978 21.1006 0.259274 1.510693 2.795254
2009-06-17 09:15:46 51°18.414 2°39.956 21.0981 0.259377 1.511298 2.795254
2009-06-17 09:15:51 51°18.422 2°39.933 21.0769 0.259274 1.510693 2.795254
2009-06-17 09:15:56 51°18.43 2°39.911 21.0901 0.259274 1.510693 2.795254
2009-06-17 09:16:01 51°18.438 2°39.889 21.0955 0.259274 1.510693 2.76043
2009-06-17 09:16:06 51°18.446 2°39.867 21.0982 0.259274 1.51072 2.76043
2009-06-17 09:16:11 51°18.453 2°39.845 21.093 0.259377 1.511381 2.795254
2009-06-17 09:16:16 51°18.461 2°39.822 21.109 0.259274 1.510693 2.795254
2009-06-17 09:16:21 51°18.469 2°39.8 21.1018 0.259377 1.511326 2.795254
2009-06-17 09:16:26 51°18.477 2°39.778 21.0881 0.259377 1.511326 2.795254
2009-06-17 09:16:31 51°18.484 2°39.756 21.1051 0.259274 1.510693 2.795254
2009-06-17 09:16:36 51°18.493 2°39.734 21.0954 0.259274 1.510665 2.795254
2009-06-17 09:16:41 51°18.5 2°39.711 21.0901 0.259274 1.510665 2.795254
2009-06-17 09:16:45 51°18.506 2°39.694 21.0919 0.259274 1.510665 2.76043
2009-06-17 09:16:51 51°18.516 2°39.668 21.0938 0.259377 1.511326 2.795254
2009-06-17 09:16:56 51°18.524 2°39.646 21.0956 0.259377 1.511326 2.795254
2009-06-17 09:17:01 51°18.532 2°39.624 21.1062 0.259274 1.510693 2.795254
2009-06-17 09:17:06 51°18.54 2°39.602 21.114 0.259377 1.511326 2.76043
2009-06-17 09:17:11 51°18.548 2°39.58 21.108 0.259274 1.510693 2.76043
2009-06-17 09:17:16 51°18.556 2°39.558 21.1191 0.259274 1.510665 2.795254
2009-06-17 09:17:21 51°18.565 2°39.537 21.0994 0.259274 1.510665 2.76043
2009-06-17 09:17:25 51°18.571 2°39.519 21.1118 0.259274 1.510665 2.76043
2009-06-17 09:17:31 51°18.581 2°39.492 21.1159 0.259274 1.510693 2.795254
2009-06-17 09:17:36 51°18.589 2°39.471 21.0981 0.259274 1.510665 2.795254
2009-06-17 09:17:41 51°18.597 2°39.449 21.0977 0.259274 1.510665 2.76043
2009-06-17 09:17:46 51°18.606 2°39.427 21.1028 0.259274 1.510665 2.795254
2009-06-17 09:17:51 51°18.614 2°39.405 21.1248 0.259274 1.510665 2.795254
2009-06-17 09:17:56 51°18.623 2°39.383 21.1196 0.259274 1.510665 2.795254
2009-06-17 09:18:01 51°18.63 2°39.36 21.117 0.259274 1.510693 2.76043
2009-06-17 09:18:05 51°18.637 2°39.343 21.1184 0.259274 1.510665 2.76043
2009-06-17 09:18:11 51°18.647 2°39.316 21.1186 0.259377 1.511298 2.795254
2009-06-17 09:18:16 51°18.655 2°39.294 21.121 0.259274 1.510665 2.795254
2009-06-17 09:18:21 51°18.664 2°39.273 21.1147 0.259274 1.510638 2.795254
2009-06-17 09:18:26 51°18.672 2°39.251 21.1351 0.259274 1.510638 2.795254
2009-06-17 09:18:31 51°18.681 2°39.229 21.1032 0.259274 1.510665 2.795254
2009-06-17 09:18:36 51°18.69 2°39.207 21.1186 0.259274 1.510638 2.795254
2009-06-17 09:18:41 51°18.698 2°39.186 21.1235 0.259377 1.511298 2.795254
2009-06-17 09:18:45 51°18.705 2°39.168 21.14 0.259274 1.510665 2.795254
2009-06-17 09:18:51 51°18.716 2°39.142 21.1382 0.259274 1.510665 2.76043
2009-06-17 09:18:56 51°18.724 2°39.12 21.1298 0.259274 1.510665 2.76043
2009-06-17 09:19:01 51°18.732 2°39.098 21.1121 0.259274 1.510665 2.76043
2009-06-17 09:19:06 51°18.74 2°39.076 21.125 0.259274 1.510638 2.76043
2009-06-17 09:19:11 51°18.748 2°39.054 21.1195 0.259274 1.510638 2.795254
2009-06-17 09:19:16 51°18.756 2°39.031 21.1382 0.259274 1.510638 2.795254
2009-06-17 09:19:21 51°18.764 2°39.009 21.1195 0.259274 1.510638 2.76043
2009-06-17 09:19:26 51°18.771 2°38.986 21.1279 0.259274 1.510638 2.76043
2009-06-17 09:19:31 51°18.779 2°38.964 21.121 0.259377 1.511271 2.76043
2009-06-17 09:19:36 51°18.786 2°38.941 21.1076 0.259274 1.510638 2.795254
2009-06-17 09:19:41 51°18.794 2°38.919 21.1288 0.259274 1.510638 2.76043
2009-06-17 09:19:46 51°18.801 2°38.896 21.122 0.259274 1.510638 2.76043
2009-06-17 09:19:51 51°18.809 2°38.873 21.1398 0.259274 1.510638 2.76043
2009-06-17 09:19:56 51°18.817 2°38.851 21.1194 0.259274 1.510638 2.76043
2009-06-17 09:20:01 51°18.824 2°38.828 21.141 0.259274 1.510638 2.795254
2009-06-17 09:20:06 51°18.831 2°38.805 21.1315 0.259274 1.510638 2.795254
2009-06-17 09:20:11 51°18.839 2°38.783 21.135 0.259274 1.510638 2.76043
2009-06-17 09:20:16 51°18.847 2°38.76 21.1067 0.259274 1.51061 2.76043
2009-06-17 09:20:21 51°18.854 2°38.737 21.1251 0.259274 1.51061 2.795254
2009-06-17 09:20:26 51°18.862 2°38.715 21.1321 0.259274 1.51061 2.795254
2009-06-17 09:20:31 51°18.869 2°38.692 21.114 0.259274 1.51061 2.795254
2009-06-17 09:20:36 51°18.877 2°38.67 21.1229 0.259274 1.51061 2.76043
2009-06-17 09:20:41 51°18.884 2°38.646 21.129 0.259274 1.510582 2.795254
2009-06-17 09:20:46 51°18.892 2°38.624 21.1235 0.259274 1.510638 2.76043
2009-06-17 09:20:51 51°18.9 2°38.602 21.1454 0.259274 1.51061 2.76043
2009-06-17 09:20:56 51°18.908 2°38.579 21.1468 0.259274 1.51061 2.76043
2009-06-17 09:21:01 51°18.916 2°38.557 21.148 0.259274 1.510638 2.76043
2009-06-17 09:21:06 51°18.924 2°38.534 21.146 0.259274 1.51061 2.76043
2009-06-17 09:21:11 51°18.932 2°38.512 21.1261 0.259274 1.51061 2.795254
2009-06-17 09:21:16 51°18.939 2°38.489 21.1534 0.259274 1.510582 2.795254
2009-06-17 09:21:21 51°18.947 2°38.466 21.1468 0.259274 1.510582 2.76043
2009-06-17 09:21:26 51°18.955 2°38.444 21.1472 0.259274 1.510582 2.76043
2009-06-17 09:21:31 51°18.963 2°38.421 21.1535 0.259274 1.51061 2.76043
2009-06-17 09:21:36 51°18.97 2°38.398 21.1569 0.259274 1.51061 2.76043
2009-06-17 09:21:41 51°18.977 2°38.375 21.1329 0.259274 1.51061 2.76043
2009-06-17 09:21:46 51°18.984 2°38.352 21.1541 0.259274 1.51061 2.76043
2009-06-17 09:21:51 51°18.992 2°38.329 21.1568 0.259274 1.51061 2.76043
2009-06-17 09:21:56 51°18.999 2°38.306 21.1462 0.259274 1.51061 2.76043
2009-06-17 09:22:01 51°19.005 2°38.282 21.1546 0.259274 1.51061 2.76043
2009-06-17 09:22:06 51°19.012 2°38.259 21.1453 0.259274 1.51061 2.76043
2009-06-17 09:22:11 51°19.019 2°38.235 21.1471 0.259274 1.510582 2.76043
2009-06-17 09:22:16 51°19.025 2°38.211 21.1428 0.259274 1.510555 2.76043
2009-06-17 09:22:21 51°19.032 2°38.187 21.1548 0.259274 1.510582 2.76043
2009-06-17 09:22:26 51°19.039 2°38.164 21.1415 0.259274 1.510582 2.76043
2009-06-17 09:22:31 51°19.046 2°38.14 21.1735 0.259274 1.510555 2.76043
2009-06-17 09:22:36 51°19.054 2°38.117 21.1389 0.259274 1.510582 2.76043
2009-06-17 09:22:41 51°19.06 2°38.093 21.1697 0.259274 1.510582 2.76043
2009-06-17 09:22:46 51°19.068 2°38.069 21.1581 0.259274 1.510582 2.76043
2009-06-17 09:22:51 51°19.074 2°38.046 21.1523 0.259274 1.510582 2.76043
2009-06-17 09:22:56 51°19.081 2°38.022 21.1474 0.259274 1.510582 2.76043
2009-06-17 09:23:01 51°19.088 2°37.998 21.1559 0.259274 1.510582 2.76043
2009-06-17 09:23:06 51°19.095 2°37.974 21.1724 0.259274 1.510555 2.76043
2009-06-17 09:23:11 51°19.102 2°37.951 21.1523 0.259274 1.510555 2.76043
2009-06-17 09:23:16 51°19.109 2°37.927 21.18 0.259274 1.510555 2.76043
2009-06-17 09:23:21 51°19.116 2°37.904 21.1592 0.259274 1.510555 2.76043
2009-06-17 09:23:26 51°19.124 2°37.88 21.1564 0.259274 1.510555 2.76043
2009-06-17 09:23:31 51°19.131 2°37.856 21.1561 0.259274 1.510582 2.76043
2009-06-17 09:23:36 51°19.138 2°37.833 21.1795 0.259274 1.510582 2.76043
2009-06-17 09:23:41 51°19.145 2°37.809 21.1768 0.259274 1.510582 2.76043
2009-06-17 09:23:46 51°19.152 2°37.786 21.1668 0.259274 1.510582 2.76043
2009-06-17 09:23:51 51°19.159 2°37.762 21.1539 0.259274 1.510555 2.76043
2009-06-17 09:23:56 51°19.166 2°37.739 21.189 0.259274 1.510555 2.76043
2009-06-17 09:24:01 51°19.173 2°37.716 21.1548 0.259274 1.510555 2.76043
2009-06-17 09:24:06 51°19.18 2°37.692 21.1838 0.259274 1.510527 2.76043
2009-06-17 09:24:11 51°19.187 2°37.669 21.1514 0.259274 1.510555 2.76043
2009-06-17 09:24:16 51°19.194 2°37.645 21.1868 0.259274 1.510527 2.76043
2009-06-17 09:24:21 51°19.201 2°37.622 21.1828 0.259274 1.510555 2.76043
2009-06-17 09:24:26 51°19.208 2°37.598 21.1722 0.259274 1.510555 2.76043
2009-06-17 09:24:31 51°19.215 2°37.575 21.1581 0.259274 1.510555 2.76043
2009-06-17 09:24:36 51°19.223 2°37.551 21.1763 0.259274 1.510555 2.76043
2009-06-17 09:24:41 51°19.23 2°37.528 21.1604 0.259274 1.510555 2.76043
2009-06-17 09:24:46 51°19.238 2°37.505 21.1751 0.259274 1.510555 2.76043
2009-06-17 09:24:51 51°19.245 2°37.482 21.1766 0.259274 1.510555 2.76043
2009-06-17 09:24:56 51°19.252 2°37.459 21.1898 0.259274 1.510555 2.76043
2009-06-17 09:25:01 51°19.26 2°37.436 21.1565 0.259274 1.510555 2.76043
2009-06-17 09:25:06 51°19.266 2°37.412 21.174 0.259274 1.510555 2.76043
2009-06-17 09:25:11 51°19.274 2°37.389 21.1455 0.259274 1.510555 2.76043
2009-06-17 09:25:16 51°19.28 2°37.366 21.1751 0.259274 1.510527 2.76043
2009-06-17 09:25:21 51°19.287 2°37.343 21.1917 0.259274 1.510527 2.76043
2009-06-17 09:25:26 51°19.295 2°37.32 21.1794 0.259274 1.510527 2.76043
2009-06-17 09:25:31 51°19.302 2°37.296 21.1879 0.259274 1.510527 2.76043
2009-06-17 09:25:37 51°19.31 2°37.269 21.1676 0.259274 1.510555 2.76043
2009-06-17 09:25:41 51°19.315 2°37.25 21.1884 0.259274 1.5105 2.76043
2009-06-17 09:25:45 51°19.322 2°37.232 21.1839 0.259274 1.510555 2.76043
2009-06-17 09:25:51 51°19.33 2°37.203 21.1888 0.259274 1.510527 2.76043
2009-06-17 09:25:56 51°19.338 2°37.181 21.1573 0.259274 1.510527 2.76043
2009-06-17 09:26:01 51°19.344 2°37.157 21.1778 0.259274 1.510555 2.76043
2009-06-17 09:26:06 51°19.351 2°37.134 21.1998 0.259274 1.510527 2.76043
2009-06-17 09:26:11 51°19.359 2°37.111 21.1741 0.259274 1.510527 2.76043
2009-06-17 09:26:16 51°19.366 2°37.087 21.2016 0.259274 1.5105 2.76043
2009-06-17 09:26:21 51°19.374 2°37.065 21.1955 0.259274 1.510527 2.76043
2009-06-17 09:26:25 51°19.38 2°37.047 21.1763 0.259274 1.510527 2.76043
2009-06-17 09:26:31 51°19.389 2°37.019 21.1835 0.259274 1.510555 2.76043
2009-06-17 09:26:36 51°19.396 2°36.996 21.1658 0.259274 1.510527 2.76043
2009-06-17 09:26:41 51°19.403 2°36.972 21.1756 0.259274 1.510527 2.76043
2009-06-17 09:26:46 51°19.41 2°36.95 21.1804 0.259274 1.510527 2.76043
2009-06-17 09:26:51 51°19.418 2°36.927 21.2032 0.259274 1.5105 2.76043
2009-06-17 09:26:56 51°19.426 2°36.904 21.1936 0.259274 1.5105 2.76043
2009-06-17 09:27:01 51°19.433 2°36.88 21.2068 0.259274 1.510527 2.76043
2009-06-17 09:27:06 51°19.441 2°36.857 21.154 0.259274 1.510555 2.76043
2009-06-17 09:27:11 51°19.447 2°36.833 21.2005 0.259274 1.5105 2.76043
2009-06-17 09:27:16 51°19.455 2°36.811 21.1901 0.259274 1.510527 2.76043
2009-06-17 09:27:21 51°19.463 2°36.788 21.2122 0.259274 1.5105 2.76043
2009-06-17 09:27:26 51°19.47 2°36.765 21.197 0.259274 1.5105 2.76043
2009-06-17 09:27:31 51°19.477 2°36.742 21.2021 0.259274 1.510527 2.76043
2009-06-17 09:27:36 51°19.484 2°36.718 21.1958 0.259274 1.510555 2.76043
2009-06-17 09:27:41 51°19.491 2°36.695 21.2069 0.259274 1.510527 2.76043
2009-06-17 09:27:46 51°19.498 2°36.672 21.197 0.259274 1.5105 2.76043
2009-06-17 09:27:51 51°19.504 2°36.648 21.1916 0.259274 1.510527 2.76043
2009-06-17 09:27:56 51°19.51 2°36.624 21.2137 0.259274 1.510527 2.76043
2009-06-17 09:28:01 51°19.516 2°36.601 21.2219 0.259274 1.5105 2.76043
2009-06-17 09:28:06 51°19.522 2°36.577 21.1974 0.259274 1.5105 2.76043
2009-06-17 09:28:11 51°19.528 2°36.553 21.2208 0.259274 1.5105 2.76043
2009-06-17 09:28:16 51°19.533 2°36.529 21.1881 0.259274 1.5105 2.76043
2009-06-17 09:28:21 51°19.539 2°36.505 21.2118 0.259274 1.5105 2.76043
2009-06-17 09:28:26 51°19.545 2°36.481 21.1977 0.259274 1.5105 2.76043
2009-06-17 09:28:31 51°19.55 2°36.457 21.1972 0.259274 1.5105 2.76043
2009-06-17 09:28:36 51°19.556 2°36.433 21.2073 0.259274 1.5105 2.76043
2009-06-17 09:28:41 51°19.562 2°36.409 21.1823 0.259274 1.510527 2.76043
2009-06-17 09:28:46 51°19.567 2°36.384 21.2081 0.259274 1.5105 2.76043
2009-06-17 09:28:51 51°19.573 2°36.36 21.1994 0.259274 1.5105 2.76043
2009-06-17 09:28:56 51°19.578 2°36.336 21.2159 0.259274 1.5105 2.76043
2009-06-17 09:29:01 51°19.584 2°36.312 21.2073 0.259274 1.510527 2.76043
2009-06-17 09:29:06 51°19.589 2°36.288 21.2151 0.259274 1.5105 2.76043
2009-06-17 09:29:11 51°19.595 2°36.264 21.1938 0.259274 1.510527 2.76043
2009-06-17 09:29:16 51°19.6 2°36.24 21.231 0.259274 1.5105 2.76043
2009-06-17 09:29:21 51°19.606 2°36.216 21.2067 0.259274 1.510527 2.76043
2009-06-17 09:29:26 51°19.611 2°36.191 21.2314 0.259274 1.510527 2.76043
2009-06-17 09:29:31 51°19.616 2°36.167 21.1962 0.259274 1.510527 2.76043
2009-06-17 09:29:36 51°19.621 2°36.143 21.2296 0.259274 1.510527 2.76043
2009-06-17 09:29:41 51°19.626 2°36.119 21.2189 0.259274 1.510527 2.76043
2009-06-17 09:29:46 51°19.632 2°36.094 21.2356 0.259274 1.5105 2.76043
2009-06-17 09:29:51 51°19.637 2°36.07 21.2025 0.259274 1.5105 2.76043
2009-06-17 09:29:57 51°19.643 2°36.041 21.2262 0.259274 1.5105 2.76043
2009-06-17 09:30:01 51°19.648 2°36.022 21.218 0.259274 1.5105 2.76043
2009-06-17 09:30:06 51°19.653 2°35.998 21.1953 0.259274 1.5105 2.76043
2009-06-17 09:30:11 51°19.659 2°35.974 21.2398 0.259274 1.5105 2.76043
2009-06-17 09:30:16 51°19.665 2°35.95 21.2047 0.259274 1.510527 2.76043
2009-06-17 09:30:21 51°19.67 2°35.926 21.2255 0.259274 1.510527 2.76043
2009-06-17 09:30:25 51°19.675 2°35.906 21.2002 0.259274 1.510527 2.76043
2009-06-17 09:30:31 51°19.682 2°35.877 21.2443 0.259274 1.5105 2.76043
2009-06-17 09:30:36 51°19.688 2°35.854 21.1969 0.259274 1.510527 2.725606
2009-06-17 09:30:41 51°19.693 2°35.829 21.2208 0.259274 1.5105 2.76043
2009-06-17 09:30:46 51°19.699 2°35.806 21.2414 0.259274 1.510472 2.76043
2009-06-17 09:30:51 51°19.704 2°35.782 21.2213 0.259274 1.510527 2.76043
2009-06-17 09:30:56 51°19.71 2°35.758 21.2296 0.259274 1.510527 2.76043
2009-06-17 09:31:01 51°19.716 2°35.735 21.2421 0.259274 1.5105 2.76043
2009-06-17 09:31:06 51°19.721 2°35.71 21.2439 0.259274 1.5105 2.76043
2009-06-17 09:31:11 51°19.727 2°35.686 21.2321 0.259274 1.5105 2.725606
2009-06-17 09:31:16 51°19.733 2°35.662 21.2017 0.259274 1.510527 2.76043
2009-06-17 09:31:21 51°19.738 2°35.637 21.2386 0.259274 1.5105 2.76043
2009-06-17 09:31:26 51°19.744 2°35.613 21.2248 0.259274 1.5105 2.76043
2009-06-17 09:31:31 51°19.749 2°35.59 21.2314 0.259274 1.5105 2.76043
2009-06-17 09:31:36 51°19.755 2°35.565 21.239 0.259274 1.5105 2.76043
2009-06-17 09:31:41 51°19.761 2°35.541 21.2087 0.259274 1.5105 2.76043
2009-06-17 09:31:46 51°19.766 2°35.517 21.2169 0.259274 1.5105 2.725606
2009-06-17 09:31:52 51°19.773 2°35.489 21.2397 0.259274 1.5105 2.76043
2009-06-17 09:31:56 51°19.777 2°35.469 21.2165 0.259274 1.5105 2.76043
2009-06-17 09:32:01 51°19.782 2°35.445 21.2434 0.259274 1.5105 2.76043
2009-06-17 09:32:06 51°19.788 2°35.422 21.231 0.259274 1.5105 2.76043
2009-06-17 09:32:11 51°19.794 2°35.397 21.2485 0.259274 1.510527 2.76043
2009-06-17 09:32:16 51°19.799 2°35.373 21.2399 0.259274 1.510527 2.76043
2009-06-17 09:32:21 51°19.805 2°35.349 21.216 0.259274 1.5105 2.76043
2009-06-17 09:32:26 51°19.811 2°35.325 21.2258 0.259274 1.5105 2.76043
2009-06-17 09:32:31 51°19.816 2°35.301 21.2452 0.259274 1.5105 2.76043
2009-06-17 09:32:36 51°19.822 2°35.278 21.243 0.259274 1.5105 2.76043
2009-06-17 09:32:41 51°19.828 2°35.254 21.2284 0.259274 1.510527 2.76043
2009-06-17 09:32:46 51°19.834 2°35.23 21.2527 0.259274 1.5105 2.76043
2009-06-17 09:32:51 51°19.841 2°35.206 21.2521 0.259274 1.5105 2.76043
2009-06-17 09:32:56 51°19.846 2°35.182 21.2609 0.259274 1.5105 2.76043
2009-06-17 09:33:01 51°19.852 2°35.158 21.2411 0.259274 1.510527 2.725606
2009-06-17 09:33:06 51°19.858 2°35.134 21.2197 0.259274 1.5105 2.76043
2009-06-17 09:33:11 51°19.864 2°35.11 21.2537 0.259274 1.5105 2.76043
2009-06-17 09:33:16 51°19.87 2°35.086 21.2612 0.259274 1.5105 2.725606
2009-06-17 09:33:21 51°19.875 2°35.063 21.2403 0.259274 1.5105 2.76043
2009-06-17 09:33:26 51°19.881 2°35.039 21.2421 0.259274 1.5105 2.76043
2009-06-17 09:33:32 51°19.888 2°35.01 21.2539 0.259274 1.5105 2.76043
2009-06-17 09:33:36 51°19.893 2°34.991 21.2641 0.259274 1.5105 2.725606
2009-06-17 09:33:41 51°19.899 2°34.967 21.248 0.259274 1.5105 2.76043
2009-06-17 09:33:46 51°19.905 2°34.943 21.2552 0.259274 1.510527 2.76043
2009-06-17 09:33:51 51°19.911 2°34.919 21.2646 0.259274 1.5105 2.76043